Time,TemperatureF,DewpointF,PressureIn,WindDirection,WindDirectionDegrees,WindSpeedMPH,WindSpeedGustMPH,Humidity,HourlyPrecipIn,Conditions,Clouds,dailyrainin,SolarRadiationWatts/m^2,SoftwareType,DateUTC
2013-05-10 00:01:00,59.8,57.8,29.84,SW,225,0.0,3.0,93,0.17,,,0.23,0.00,VWS V14.01,2013-05-10 04:01:00,
2013-05-10 00:06:00,59.8,58.1,29.83,SW,225,0.0,3.0,94,0.21,,,0.05,0.00,VWS V14.01,2013-05-10 04:06:00,
2013-05-10 00:11:00,59.7,58.0,29.84,WSW,255,3.0,3.0,94,0.22,,,0.08,0.00,VWS V14.01,2013-05-10 04:11:00,
2013-05-10 00:16:00,59.7,58.3,29.84,WSW,254,2.0,3.0,95,0.22,,,0.09,0.00,VWS V14.01,2013-05-10 04:16:00,
2013-05-10 00:21:00,59.7,58.3,29.83,WSW,242,2.0,2.0,95,0.22,,,0.11,0.00,VWS V14.01,2013-05-10 04:21:00,
2013-05-10 00:26:00,59.6,58.2,29.83,WSW,240,0.0,0.0,95,0.25,,,0.15,0.00,VWS V14.01,2013-05-10 04:26:00,
2013-05-10 00:31:00,59.6,58.2,29.82,SW,235,0.0,0.0,95,0.25,,,0.16,0.00,VWS V14.01,2013-05-10 04:31:00,
2013-05-10 00:36:00,59.6,58.2,29.82,SW,228,5.0,6.0,95,0.25,,,0.17,0.00,VWS V14.01,2013-05-10 04:36:00,
2013-05-10 00:41:00,59.6,58.2,29.82,WSW,246,3.0,6.0,95,0.25,,,0.18,0.00,VWS V14.01,2013-05-10 04:41:00,
2013-05-10 00:46:00,59.7,58.6,29.83,SW,221,0.0,1.0,96,0.24,,,0.18,0.00,VWS V14.01,2013-05-10 04:46:00,
2013-05-10 00:51:00,59.8,58.4,29.82,SW,224,4.0,6.0,95,0.23,,,0.18,0.00,VWS V14.01,2013-05-10 04:51:00,
2013-05-10 00:56:00,60.0,58.6,29.82,SW,226,3.0,5.0,95,0.21,,,0.18,0.00,VWS V14.01,2013-05-10 04:56:00,
2013-05-10 01:01:00,60.2,58.8,29.82,WSW,252,3.0,3.0,95,0.18,,,0.18,0.00,VWS V14.01,2013-05-10 05:01:00,
2013-05-10 01:02:00,60.2,58.8,29.82,WSW,248,12.0,12.0,95,0.18,,,0.18,0.00,VWS V14.01,2013-05-10 05:02:00,
2013-05-10 01:06:00,60.6,59.2,29.82,SW,234,0.0,2.0,95,0.13,,,0.18,0.00,VWS V14.01,2013-05-10 05:06:00,
2013-05-10 01:07:00,60.6,59.2,29.82,West,267,3.0,9.0,95,0.13,,,0.18,0.00,VWS V14.01,2013-05-10 05:07:00,
2013-05-10 01:11:00,60.8,59.1,29.81,WSW,249,7.0,8.0,94,0.10,,,0.18,0.00,VWS V14.01,2013-05-10 05:11:00,
2013-05-10 01:12:00,60.8,59.1,29.81,SSW,209,9.0,9.0,94,0.10,,,0.18,0.00,VWS V14.01,2013-05-10 05:12:00,
2013-05-10 01:16:00,60.9,59.2,29.82,West,273,8.0,8.0,94,0.09,,,0.18,0.00,VWS V14.01,2013-05-10 05:16:00,
2013-05-10 01:17:00,60.9,59.2,29.82,NW,309,7.0,8.0,94,0.09,,,0.18,0.00,VWS V14.01,2013-05-10 05:17:00,
2013-05-10 01:21:00,61.0,59.3,29.82,WSW,251,8.0,9.0,94,0.07,,,0.18,0.00,VWS V14.01,2013-05-10 05:21:00,
2013-05-10 01:22:00,61.0,59.3,29.82,West,265,4.0,9.0,94,0.07,,,0.18,0.00,VWS V14.01,2013-05-10 05:22:00,
2013-05-10 01:26:00,61.1,59.4,29.81,West,263,2.0,4.0,94,0.03,,,0.18,0.00,VWS V14.01,2013-05-10 05:26:00,
2013-05-10 01:27:00,61.1,59.4,29.81,WSW,254,2.0,5.0,94,0.03,,,0.18,0.00,VWS V14.01,2013-05-10 05:27:00,
2013-05-10 01:31:00,61.1,59.4,29.81,West,266,6.0,8.0,94,0.02,,,0.18,0.00,VWS V14.01,2013-05-10 05:31:00,
2013-05-10 01:32:00,61.1,59.4,29.81,West,271,3.0,8.0,94,0.02,,,0.18,0.00,VWS V14.01,2013-05-10 05:32:00,
2013-05-10 01:37:00,61.1,59.4,29.81,SW,234,4.0,11.0,94,0.01,,,0.18,0.00,VWS V14.01,2013-05-10 05:37:00,
2013-05-10 01:42:00,61.1,59.4,29.81,WSW,258,6.0,8.0,94,0.00,,,0.18,0.00,VWS V14.01,2013-05-10 05:42:00,
2013-05-10 01:47:00,61.1,59.4,29.81,West,275,3.0,7.0,94,0.00,,,0.18,0.00,VWS V14.01,2013-05-10 05:47:00,
2013-05-10 01:52:00,61.1,59.4,29.81,West,263,6.0,6.0,94,0.00,,,0.18,0.00,VWS V14.01,2013-05-10 05:52:00,
2013-05-10 01:57:00,61.2,59.5,29.81,WNW,286,7.0,7.0,94,0.00,,,0.18,0.00,VWS V14.01,2013-05-10 05:57:00,
2013-05-10 02:02:00,61.2,59.5,29.81,West,277,10.0,14.0,94,0.00,,,0.18,0.00,VWS V14.01,2013-05-10 06:02:00,
2013-05-10 02:03:00,61.1,59.4,29.81,WNW,288,3.0,14.0,94,0.00,,,0.18,0.00,VWS V14.01,2013-05-10 06:03:00,
2013-05-10 02:07:00,61.2,59.2,29.80,West,277,5.0,6.0,93,0.00,,,0.18,0.00,VWS V14.01,2013-05-10 06:07:00,
2013-05-10 02:08:00,61.2,59.2,29.80,WSW,252,1.0,1.0,93,0.00,,,0.18,0.00,VWS V14.01,2013-05-10 06:08:00,
2013-05-10 02:12:00,61.2,59.2,29.80,WSW,244,0.0,1.0,93,0.00,,,0.18,0.00,VWS V14.01,2013-05-10 06:12:00,
2013-05-10 02:13:00,61.2,59.2,29.80,WNW,283,2.0,2.0,93,0.00,,,0.18,0.00,VWS V14.01,2013-05-10 06:13:00,
2013-05-10 02:17:00,61.2,59.2,29.81,West,267,4.0,5.0,93,0.00,,,0.18,0.00,VWS V14.01,2013-05-10 06:17:00,
2013-05-10 02:18:00,61.2,59.2,29.81,WSW,253,4.0,5.0,93,0.00,,,0.18,0.00,VWS V14.01,2013-05-10 06:18:00,
2013-05-10 02:22:00,61.2,59.5,29.80,WSW,237,2.0,4.0,94,0.00,,,0.18,0.00,VWS V14.01,2013-05-10 06:22:00,
2013-05-10 02:23:00,61.2,59.5,29.80,West,269,1.0,3.0,94,0.00,,,0.18,0.00,VWS V14.01,2013-05-10 06:23:00,
2013-05-10 02:27:00,61.2,59.2,29.80,West,274,1.0,2.0,93,0.00,,,0.18,0.00,VWS V14.01,2013-05-10 06:27:00,
2013-05-10 02:28:00,61.2,59.2,29.80,West,275,4.0,4.0,93,0.00,,,0.18,0.00,VWS V14.01,2013-05-10 06:28:00,
2013-05-10 02:32:00,61.2,59.5,29.80,West,275,1.0,6.0,94,0.00,,,0.18,0.00,VWS V14.01,2013-05-10 06:32:00,
2013-05-10 02:33:00,61.2,59.5,29.80,West,279,5.0,8.0,94,0.00,,,0.18,0.00,VWS V14.01,2013-05-10 06:33:00,
2013-05-10 02:37:00,61.1,59.1,29.80,WNW,289,3.0,7.0,93,0.00,,,0.18,0.00,VWS V14.01,2013-05-10 06:37:00,
2013-05-10 02:38:00,61.1,59.4,29.80,WNW,290,3.0,4.0,94,0.00,,,0.18,0.00,VWS V14.01,2013-05-10 06:38:00,
2013-05-10 02:42:00,61.1,59.4,29.80,West,263,3.0,7.0,94,0.00,,,0.18,0.00,VWS V14.01,2013-05-10 06:42:00,
2013-05-10 02:43:00,61.1,59.4,29.80,WNW,287,4.0,4.0,94,0.00,,,0.18,0.00,VWS V14.01,2013-05-10 06:43:00,
2013-05-10 02:47:00,61.0,59.3,29.80,West,268,0.0,1.0,94,0.00,,,0.18,0.00,VWS V14.01,2013-05-10 06:47:00,
2013-05-10 02:48:00,61.0,59.3,29.80,WSW,258,6.0,6.0,94,0.00,,,0.18,0.00,VWS V14.01,2013-05-10 06:48:00,
2013-05-10 02:52:00,60.9,59.2,29.80,WNW,286,1.0,1.0,94,0.00,,,0.18,0.00,VWS V14.01,2013-05-10 06:52:00,
2013-05-10 02:53:00,61.0,59.3,29.80,West,279,5.0,5.0,94,0.00,,,0.18,0.00,VWS V14.01,2013-05-10 06:53:00,
2013-05-10 02:57:00,60.9,59.2,29.79,West,269,4.0,7.0,94,0.00,,,0.18,0.00,VWS V14.01,2013-05-10 06:57:00,
2013-05-10 02:58:00,60.9,59.2,29.79,WSW,251,2.0,4.0,94,0.00,,,0.18,0.00,VWS V14.01,2013-05-10 06:58:00,
2013-05-10 03:02:00,60.9,59.2,29.80,West,265,4.0,5.0,94,0.00,,,0.18,0.00,VWS V14.01,2013-05-10 07:02:00,
2013-05-10 03:03:00,60.9,59.2,29.80,West,267,6.0,6.0,94,0.00,,,0.18,0.00,VWS V14.01,2013-05-10 07:03:00,
2013-05-10 03:07:00,60.9,59.2,29.80,West,280,3.0,5.0,94,0.00,,,0.18,0.00,VWS V14.01,2013-05-10 07:07:00,
2013-05-10 03:08:00,60.9,59.2,29.80,West,279,0.0,3.0,94,0.00,,,0.18,0.00,VWS V14.01,2013-05-10 07:08:00,
2013-05-10 03:12:00,60.9,59.2,29.80,WSW,242,2.0,5.0,94,0.00,,,0.18,0.00,VWS V14.01,2013-05-10 07:12:00,
2013-05-10 03:13:00,60.9,59.2,29.80,WSW,247,3.0,3.0,94,0.00,,,0.18,0.00,VWS V14.01,2013-05-10 07:13:00,
2013-05-10 03:17:00,61.0,59.3,29.79,West,275,5.0,5.0,94,0.00,,,0.18,0.00,VWS V14.01,2013-05-10 07:17:00,
2013-05-10 03:18:00,61.0,59.3,29.79,WNW,288,0.0,2.0,94,0.00,,,0.18,0.00,VWS V14.01,2013-05-10 07:18:00,
2013-05-10 03:22:00,61.1,59.4,29.79,West,271,4.0,4.0,94,0.00,,,0.18,0.00,VWS V14.01,2013-05-10 07:22:00,
2013-05-10 03:23:00,61.1,59.4,29.80,WNW,294,5.0,5.0,94,0.00,,,0.18,0.00,VWS V14.01,2013-05-10 07:23:00,
2013-05-10 03:24:00,61.1,59.4,29.80,WNW,285,1.0,5.0,94,0.00,,,0.18,0.00,VWS V14.01,2013-05-10 07:24:00,
2013-05-10 03:27:00,61.2,59.5,29.79,West,279,5.0,9.0,94,0.00,,,0.18,0.00,VWS V14.01,2013-05-10 07:27:00,
2013-05-10 03:28:00,61.2,59.5,29.79,West,263,3.0,5.0,94,0.00,,,0.18,0.00,VWS V14.01,2013-05-10 07:28:00,
2013-05-10 03:29:00,61.2,59.5,29.79,WNW,282,4.0,7.0,94,0.00,,,0.18,0.00,VWS V14.01,2013-05-10 07:29:00,
2013-05-10 03:32:00,61.3,59.6,29.79,WNW,290,6.0,7.0,94,0.00,,,0.18,0.00,VWS V14.01,2013-05-10 07:32:00,
2013-05-10 03:33:00,61.3,59.6,29.79,WNW,287,5.0,5.0,94,0.00,,,0.18,0.00,VWS V14.01,2013-05-10 07:33:00,
2013-05-10 03:34:00,61.3,59.6,29.79,WNW,287,4.0,5.0,94,0.00,,,0.18,0.00,VWS V14.01,2013-05-10 07:34:00,
2013-05-10 03:37:00,61.4,59.7,29.79,West,263,3.0,5.0,94,0.00,,,0.18,0.00,VWS V14.01,2013-05-10 07:37:00,
2013-05-10 03:38:00,61.4,59.7,29.79,West,262,3.0,5.0,94,0.00,,,0.18,0.00,VWS V14.01,2013-05-10 07:38:00,
2013-05-10 03:39:00,61.4,59.7,29.79,West,279,3.0,8.0,94,0.00,,,0.18,0.00,VWS V14.01,2013-05-10 07:39:00,
2013-05-10 03:42:00,61.4,59.7,29.79,WSW,249,0.0,2.0,94,0.00,,,0.18,0.00,VWS V14.01,2013-05-10 07:42:00,
2013-05-10 03:43:00,61.4,59.7,29.79,WSW,249,2.0,2.0,94,0.00,,,0.18,0.00,VWS V14.01,2013-05-10 07:43:00,
2013-05-10 03:44:00,61.4,59.7,29.79,West,259,5.0,5.0,94,0.00,,,0.18,0.00,VWS V14.01,2013-05-10 07:44:00,
2013-05-10 03:47:00,61.4,59.4,29.79,West,275,2.0,6.0,93,0.00,,,0.18,0.00,VWS V14.01,2013-05-10 07:47:00,
2013-05-10 03:48:00,61.5,59.5,29.79,WSW,257,2.0,5.0,93,0.00,,,0.18,0.00,VWS V14.01,2013-05-10 07:48:00,
2013-05-10 03:49:00,61.5,59.5,29.80,West,266,3.0,4.0,93,0.00,,,0.18,0.00,VWS V14.01,2013-05-10 07:49:00,
2013-05-10 03:52:00,61.5,59.5,29.80,WNW,287,3.0,4.0,93,0.00,,,0.18,0.00,VWS V14.01,2013-05-10 07:52:00,
2013-05-10 03:53:00,61.5,59.5,29.80,WNW,287,4.0,4.0,93,0.00,,,0.18,0.00,VWS V14.01,2013-05-10 07:53:00,
2013-05-10 03:54:00,61.5,59.5,29.80,WNW,287,2.0,3.0,93,0.00,,,0.18,0.00,VWS V14.01,2013-05-10 07:54:00,
2013-05-10 03:57:00,61.5,59.5,29.79,WNW,292,8.0,8.0,93,0.00,,,0.18,0.00,VWS V14.01,2013-05-10 07:57:00,
2013-05-10 03:58:00,61.4,59.4,29.80,West,261,4.0,5.0,93,0.00,,,0.18,0.00,VWS V14.01,2013-05-10 07:58:00,
2013-05-10 03:59:00,61.4,59.4,29.80,West,261,0.0,0.0,93,0.00,,,0.18,0.00,VWS V14.01,2013-05-10 07:59:00,
2013-05-10 04:02:00,61.4,59.4,29.80,WSW,257,2.0,6.0,93,0.00,,,0.18,0.00,VWS V14.01,2013-05-10 08:02:00,
2013-05-10 04:03:00,61.5,59.5,29.80,WSW,255,2.0,2.0,93,0.00,,,0.18,0.00,VWS V14.01,2013-05-10 08:03:00,
2013-05-10 04:04:00,61.4,59.4,29.80,West,263,4.0,4.0,93,0.00,,,0.18,0.00,VWS V14.01,2013-05-10 08:04:00,
2013-05-10 04:07:00,61.4,59.4,29.79,West,271,0.0,4.0,93,0.00,,,0.18,0.00,VWS V14.01,2013-05-10 08:07:00,
2013-05-10 04:08:00,61.5,59.5,29.79,West,273,4.0,6.0,93,0.00,,,0.18,0.00,VWS V14.01,2013-05-10 08:08:00,
2013-05-10 04:09:00,61.5,59.5,29.79,West,269,3.0,5.0,93,0.00,,,0.18,0.00,VWS V14.01,2013-05-10 08:09:00,
2013-05-10 04:12:00,61.5,59.5,29.79,NW,304,2.0,2.0,93,0.00,,,0.18,0.00,VWS V14.01,2013-05-10 08:12:00,
2013-05-10 04:13:00,61.5,59.5,29.79,NW,304,2.0,2.0,93,0.00,,,0.18,0.00,VWS V14.01,2013-05-10 08:13:00,
2013-05-10 04:14:00,61.5,59.5,29.79,NW,304,2.0,2.0,93,0.00,,,0.18,0.00,VWS V14.01,2013-05-10 08:14:00,
2013-05-10 04:17:00,61.5,59.5,29.79,NW,304,2.0,2.0,93,0.00,,,0.18,0.00,VWS V14.01,2013-05-10 08:17:00,
2013-05-10 04:18:00,61.4,59.4,29.79,West,269,3.0,4.0,93,0.00,,,0.18,0.00,VWS V14.01,2013-05-10 08:18:00,
2013-05-10 04:19:00,61.4,59.4,29.79,West,271,2.0,5.0,93,0.00,,,0.18,0.00,VWS V14.01,2013-05-10 08:19:00,
2013-05-10 04:23:00,61.4,59.4,29.79,West,278,6.0,6.0,93,0.00,,,0.18,0.00,VWS V14.01,2013-05-10 08:23:00,
2013-05-10 04:24:00,61.5,59.5,29.79,West,275,3.0,7.0,93,0.00,,,0.18,0.00,VWS V14.01,2013-05-10 08:24:00,
2013-05-10 04:28:00,61.5,59.5,29.79,West,279,3.0,4.0,93,0.00,,,0.18,0.00,VWS V14.01,2013-05-10 08:28:00,
2013-05-10 04:29:00,61.5,59.5,29.79,West,279,1.0,4.0,93,0.00,,,0.18,0.00,VWS V14.01,2013-05-10 08:29:00,
2013-05-10 04:33:00,61.6,59.6,29.79,West,277,2.0,2.0,93,0.00,,,0.18,0.00,VWS V14.01,2013-05-10 08:33:00,
2013-05-10 04:34:00,61.6,59.6,29.79,West,277,0.0,2.0,93,0.00,,,0.18,0.00,VWS V14.01,2013-05-10 08:34:00,
2013-05-10 04:38:00,61.5,59.5,29.79,West,279,0.0,2.0,93,0.00,,,0.18,0.00,VWS V14.01,2013-05-10 08:38:00,
2013-05-10 04:39:00,61.5,59.5,29.79,West,279,2.0,3.0,93,0.00,,,0.18,0.00,VWS V14.01,2013-05-10 08:39:00,
2013-05-10 04:43:00,61.5,59.5,29.79,West,275,2.0,2.0,93,0.00,,,0.18,0.00,VWS V14.01,2013-05-10 08:43:00,
2013-05-10 04:44:00,61.5,59.5,29.79,West,275,0.0,4.0,93,0.00,,,0.18,0.00,VWS V14.01,2013-05-10 08:44:00,
2013-05-10 04:48:00,61.5,59.5,29.78,West,264,2.0,2.0,93,0.00,,,0.18,0.00,VWS V14.01,2013-05-10 08:48:00,
2013-05-10 04:49:00,61.5,59.5,29.78,WSW,253,0.0,6.0,93,0.00,,,0.18,0.00,VWS V14.01,2013-05-10 08:49:00,
2013-05-10 04:53:00,61.5,59.5,29.78,WNW,284,0.0,3.0,93,0.00,,,0.18,0.00,VWS V14.01,2013-05-10 08:53:00,
2013-05-10 04:54:00,61.5,59.5,29.78,WNW,286,2.0,5.0,93,0.00,,,0.18,0.00,VWS V14.01,2013-05-10 08:54:00,
2013-05-10 04:58:00,61.5,59.5,29.78,West,269,6.0,7.0,93,0.00,,,0.18,0.00,VWS V14.01,2013-05-10 08:58:00,
2013-05-10 04:59:00,61.5,59.5,29.78,WNW,283,1.0,3.0,93,0.00,,,0.18,0.00,VWS V14.01,2013-05-10 08:59:00,
2013-05-10 05:00:00,61.4,59.4,29.78,WNW,283,1.0,3.0,93,0.00,,,0.18,0.00,VWS V14.01,2013-05-10 09:00:00,
2013-05-10 05:03:00,61.4,59.4,29.78,WNW,283,0.0,1.0,93,0.00,,,0.18,0.00,VWS V14.01,2013-05-10 09:03:00,
2013-05-10 05:04:00,61.4,59.4,29.78,WNW,283,2.0,4.0,93,0.00,,,0.18,0.00,VWS V14.01,2013-05-10 09:04:00,
2013-05-10 05:05:00,61.3,59.3,29.78,WNW,283,0.0,0.0,93,0.00,,,0.18,0.00,VWS V14.01,2013-05-10 09:05:00,
2013-05-10 05:08:00,61.3,59.6,29.78,WNW,283,0.0,1.0,94,0.00,,,0.18,0.00,VWS V14.01,2013-05-10 09:08:00,
2013-05-10 05:09:00,61.2,59.5,29.78,WNW,283,0.0,0.0,94,0.00,,,0.18,0.00,VWS V14.01,2013-05-10 09:09:00,
2013-05-10 05:10:00,61.2,59.5,29.78,WNW,283,0.0,0.0,94,0.00,,,0.18,0.00,VWS V14.01,2013-05-10 09:10:00,
2013-05-10 05:13:00,61.1,59.4,29.78,WNW,283,0.0,2.0,94,0.00,,,0.18,0.00,VWS V14.01,2013-05-10 09:13:00,
2013-05-10 05:14:00,61.1,59.4,29.78,WNW,283,0.0,1.0,94,0.00,,,0.18,0.00,VWS V14.01,2013-05-10 09:14:00,
2013-05-10 05:15:00,61.1,59.4,29.78,WNW,283,0.0,2.0,94,0.00,,,0.18,0.00,VWS V14.01,2013-05-10 09:15:00,
2013-05-10 05:18:00,61.1,59.4,29.78,WNW,283,4.0,4.0,94,0.00,,,0.18,0.00,VWS V14.01,2013-05-10 09:18:00,
2013-05-10 05:19:00,61.1,59.4,29.78,WNW,283,0.0,2.0,94,0.00,,,0.18,0.00,VWS V14.01,2013-05-10 09:19:00,
2013-05-10 05:20:00,61.1,59.4,29.77,WNW,283,0.0,0.0,94,0.00,,,0.18,0.00,VWS V14.01,2013-05-10 09:20:00,
2013-05-10 05:23:00,61.0,59.3,29.77,WNW,283,0.0,4.0,94,0.00,,,0.18,0.00,VWS V14.01,2013-05-10 09:23:00,
2013-05-10 05:24:00,60.9,59.2,29.77,WNW,283,0.0,1.0,94,0.00,,,0.18,0.00,VWS V14.01,2013-05-10 09:24:00,
2013-05-10 05:25:00,60.9,59.2,29.77,WNW,283,0.0,1.0,94,0.00,,,0.18,0.00,VWS V14.01,2013-05-10 09:25:00,
2013-05-10 05:29:00,60.9,59.2,29.77,WNW,283,2.0,2.0,94,0.00,,,0.18,0.00,VWS V14.01,2013-05-10 09:29:00,
2013-05-10 05:30:00,60.9,59.2,29.77,WNW,283,0.0,2.0,94,0.00,,,0.18,0.00,VWS V14.01,2013-05-10 09:30:00,
2013-05-10 05:34:00,60.8,59.1,29.77,WNW,283,0.0,3.0,94,0.00,,,0.18,0.00,VWS V14.01,2013-05-10 09:34:00,
2013-05-10 05:35:00,60.8,59.1,29.77,WNW,283,0.0,0.0,94,0.00,,,0.18,0.00,VWS V14.01,2013-05-10 09:35:00,
2013-05-10 05:39:00,60.7,59.0,29.77,WNW,283,0.0,0.0,94,0.00,,,0.18,0.00,VWS V14.01,2013-05-10 09:39:00,
2013-05-10 05:40:00,60.7,59.0,29.77,WNW,283,0.0,0.0,94,0.00,,,0.18,0.00,VWS V14.01,2013-05-10 09:40:00,
2013-05-10 05:44:00,60.6,59.2,29.77,WNW,283,0.0,0.0,95,0.00,,,0.18,0.00,VWS V14.01,2013-05-10 09:44:00,
2013-05-10 05:45:00,60.6,59.2,29.77,WNW,283,0.0,0.0,95,0.00,,,0.18,0.00,VWS V14.01,2013-05-10 09:45:00,
2013-05-10 05:49:00,60.5,59.1,29.77,WNW,283,0.0,0.0,95,0.00,,,0.18,0.00,VWS V14.01,2013-05-10 09:49:00,
2013-05-10 05:50:00,60.5,59.1,29.77,WNW,283,0.0,0.0,95,0.00,,,0.18,0.00,VWS V14.01,2013-05-10 09:50:00,
2013-05-10 05:54:00,60.4,59.0,29.77,WNW,283,0.0,0.0,95,0.00,,,0.18,0.00,VWS V14.01,2013-05-10 09:54:00,
2013-05-10 05:55:00,60.4,59.0,29.77,WNW,283,0.0,0.0,95,0.00,,,0.18,0.00,VWS V14.01,2013-05-10 09:55:00,
2013-05-10 05:59:00,60.2,58.8,29.76,WNW,283,0.0,0.0,95,0.00,,,0.18,0.00,VWS V14.01,2013-05-10 09:59:00,
2013-05-10 06:00:00,60.2,58.8,29.77,WNW,283,0.0,0.0,95,0.00,,,0.18,0.00,VWS V14.01,2013-05-10 10:00:00,
2013-05-10 06:04:00,60.0,58.6,29.77,WNW,283,0.0,0.0,95,0.00,,,0.18,0.00,VWS V14.01,2013-05-10 10:04:00,
2013-05-10 06:05:00,60.0,58.6,29.77,WNW,283,0.0,0.0,95,0.00,,,0.18,0.00,VWS V14.01,2013-05-10 10:05:00,
2013-05-10 06:09:00,60.0,58.6,29.77,WNW,283,0.0,3.0,95,0.00,,,0.18,0.00,VWS V14.01,2013-05-10 10:09:00,
2013-05-10 06:10:00,60.0,58.6,29.77,WNW,284,2.0,2.0,95,0.00,,,0.18,0.00,VWS V14.01,2013-05-10 10:10:00,
2013-05-10 06:11:00,60.0,58.9,29.77,WNW,284,0.0,2.0,96,0.00,,,0.18,0.00,VWS V14.01,2013-05-10 10:11:00,
2013-05-10 06:14:00,60.0,58.9,29.77,WNW,284,0.0,0.0,96,0.00,,,0.18,0.00,VWS V14.01,2013-05-10 10:14:00,
2013-05-10 06:15:00,60.0,58.9,29.77,WNW,284,2.0,3.0,96,0.00,,,0.18,0.00,VWS V14.01,2013-05-10 10:15:00,
2013-05-10 06:16:00,60.0,58.9,29.77,WNW,284,0.0,3.0,96,0.00,,,0.18,0.00,VWS V14.01,2013-05-10 10:16:00,
2013-05-10 06:19:00,60.0,58.9,29.77,WNW,284,0.0,1.0,96,0.00,,,0.18,0.00,VWS V14.01,2013-05-10 10:19:00,
2013-05-10 06:20:00,60.0,58.9,29.77,WNW,284,0.0,0.0,96,0.00,,,0.18,0.00,VWS V14.01,2013-05-10 10:20:00,
2013-05-10 06:21:00,60.0,58.9,29.77,WNW,284,2.0,2.0,96,0.00,,,0.18,0.00,VWS V14.01,2013-05-10 10:21:00,
2013-05-10 06:24:00,60.0,58.9,29.77,WNW,284,1.0,2.0,96,0.00,,,0.18,0.00,VWS V14.01,2013-05-10 10:24:00,
2013-05-10 06:25:00,60.0,58.9,29.77,WNW,284,0.0,1.0,96,0.00,,,0.18,0.00,VWS V14.01,2013-05-10 10:25:00,
2013-05-10 06:26:00,60.0,58.9,29.77,WNW,284,0.0,1.0,96,0.00,,,0.18,0.00,VWS V14.01,2013-05-10 10:26:00,
2013-05-10 06:29:00,60.1,59.0,29.77,WNW,284,2.0,4.0,96,0.00,,,0.18,0.00,VWS V14.01,2013-05-10 10:29:00,
2013-05-10 06:30:00,60.1,59.0,29.77,WNW,284,2.0,4.0,96,0.00,,,0.18,0.00,VWS V14.01,2013-05-10 10:30:00,
2013-05-10 06:31:00,60.1,59.0,29.77,WNW,284,0.0,4.0,96,0.00,,,0.18,0.00,VWS V14.01,2013-05-10 10:31:00,
2013-05-10 06:35:00,60.1,59.0,29.77,WNW,284,0.0,0.0,96,0.00,,,0.18,0.00,VWS V14.01,2013-05-10 10:35:00,
2013-05-10 06:36:00,60.1,59.0,29.77,WNW,284,0.0,1.0,96,0.00,,,0.18,0.00,VWS V14.01,2013-05-10 10:36:00,
2013-05-10 06:40:00,60.2,59.1,29.78,West,273,3.0,3.0,96,0.00,,,0.18,0.00,VWS V14.01,2013-05-10 10:40:00,
2013-05-10 06:41:00,60.2,59.1,29.78,West,273,1.0,4.0,96,0.00,,,0.18,0.00,VWS V14.01,2013-05-10 10:41:00,
2013-05-10 06:45:00,60.2,59.3,29.78,WSW,253,0.0,1.0,97,0.00,,,0.18,0.00,VWS V14.01,2013-05-10 10:45:00,
2013-05-10 06:46:00,60.2,59.3,29.78,WSW,253,3.0,3.0,97,0.00,,,0.18,0.00,VWS V14.01,2013-05-10 10:46:00,
2013-05-10 06:50:00,60.3,59.2,29.78,West,276,5.0,5.0,96,0.00,,,0.18,0.00,VWS V14.01,2013-05-10 10:50:00,
2013-05-10 06:51:00,60.3,59.2,29.78,West,277,0.0,5.0,96,0.00,,,0.18,0.00,VWS V14.01,2013-05-10 10:51:00,
2013-05-10 06:55:00,60.4,59.5,29.78,West,278,0.0,3.0,97,0.00,,,0.18,0.00,VWS V14.01,2013-05-10 10:55:00,
2013-05-10 06:56:00,60.4,59.5,29.78,West,278,0.0,3.0,97,0.00,,,0.18,0.00,VWS V14.01,2013-05-10 10:56:00,
2013-05-10 07:00:00,60.5,59.7,29.78,West,269,5.0,5.0,97,0.00,,,0.18,0.00,VWS V14.01,2013-05-10 11:00:00,
2013-05-10 07:01:00,60.5,59.7,29.78,West,281,1.0,5.0,97,0.00,,,0.18,0.00,VWS V14.01,2013-05-10 11:01:00,
2013-05-10 07:05:00,60.6,59.8,29.78,West,263,5.0,5.0,97,0.00,,,0.18,0.00,VWS V14.01,2013-05-10 11:05:00,
2013-05-10 07:06:00,60.6,59.8,29.77,West,264,3.0,5.0,97,0.00,,,0.18,0.00,VWS V14.01,2013-05-10 11:06:00,
2013-05-10 07:10:00,60.7,59.8,29.77,West,267,2.0,4.0,97,0.00,,,0.18,0.00,VWS V14.01,2013-05-10 11:10:00,
2013-05-10 07:11:00,60.7,59.8,29.77,West,267,1.0,4.0,97,0.00,,,0.18,0.00,VWS V14.01,2013-05-10 11:11:00,
2013-05-10 07:15:00,60.7,59.8,29.77,WSW,252,2.0,6.0,97,0.00,,,0.18,0.00,VWS V14.01,2013-05-10 11:15:00,
2013-05-10 07:16:00,60.7,59.8,29.77,WSW,252,2.0,6.0,97,0.00,,,0.18,0.00,VWS V14.01,2013-05-10 11:16:00,
2013-05-10 07:20:00,60.8,59.7,29.77,West,279,0.0,6.0,96,0.00,,,0.18,0.00,VWS V14.01,2013-05-10 11:20:00,
2013-05-10 07:21:00,60.8,59.7,29.77,West,279,0.0,6.0,96,0.00,,,0.18,0.00,VWS V14.01,2013-05-10 11:21:00,
2013-05-10 07:22:00,60.8,59.7,29.77,West,279,0.0,2.0,96,0.00,,,0.18,0.00,VWS V14.01,2013-05-10 11:22:00,
2013-05-10 07:25:00,60.9,59.8,29.77,West,277,3.0,7.0,96,0.00,,,0.18,0.00,VWS V14.01,2013-05-10 11:25:00,
2013-05-10 07:26:00,60.9,59.8,29.77,West,277,1.0,7.0,96,0.00,,,0.18,0.00,VWS V14.01,2013-05-10 11:26:00,
2013-05-10 07:27:00,60.9,59.8,29.77,West,277,3.0,3.0,96,0.00,,,0.18,0.00,VWS V14.01,2013-05-10 11:27:00,
2013-05-10 07:30:00,60.9,59.8,29.78,West,277,4.0,5.0,96,0.00,,,0.18,0.00,VWS V14.01,2013-05-10 11:30:00,
2013-05-10 07:31:00,60.9,59.8,29.78,West,277,5.0,5.0,96,0.00,,,0.18,0.00,VWS V14.01,2013-05-10 11:31:00,
2013-05-10 07:32:00,61.0,59.9,29.78,West,277,0.0,0.0,96,0.00,,,0.18,0.00,VWS V14.01,2013-05-10 11:32:00,
2013-05-10 07:35:00,61.0,59.9,29.78,WNW,284,0.0,2.0,96,0.00,,,0.18,0.00,VWS V14.01,2013-05-10 11:35:00,
2013-05-10 07:36:00,61.0,59.9,29.78,WNW,284,0.0,0.0,96,0.00,,,0.18,0.00,VWS V14.01,2013-05-10 11:36:00,
2013-05-10 07:37:00,61.0,59.9,29.78,West,281,3.0,3.0,96,0.00,,,0.18,0.00,VWS V14.01,2013-05-10 11:37:00,
2013-05-10 07:41:00,61.1,60.0,29.78,WNW,283,1.0,1.0,96,0.00,,,0.18,0.00,VWS V14.01,2013-05-10 11:41:00,
2013-05-10 07:42:00,61.1,60.0,29.78,WNW,282,0.0,3.0,96,0.00,,,0.18,0.00,VWS V14.01,2013-05-10 11:42:00,
2013-05-10 07:46:00,61.2,60.0,29.78,WNW,288,0.0,0.0,96,0.00,,,0.18,0.00,VWS V14.01,2013-05-10 11:46:00,
2013-05-10 07:47:00,61.2,60.0,29.78,WNW,288,1.0,3.0,96,0.00,,,0.18,0.00,VWS V14.01,2013-05-10 11:47:00,
2013-05-10 07:51:00,61.3,60.2,29.78,West,263,0.0,2.0,96,0.00,,,0.18,0.00,VWS V14.01,2013-05-10 11:51:00,
2013-05-10 07:52:00,61.3,60.2,29.78,West,263,1.0,2.0,96,0.00,,,0.18,0.00,VWS V14.01,2013-05-10 11:52:00,
2013-05-10 07:56:00,61.4,60.2,29.78,West,280,4.0,6.0,96,0.00,,,0.18,0.00,VWS V14.01,2013-05-10 11:56:00,
2013-05-10 07:57:00,61.5,60.3,29.78,WSW,253,3.0,3.0,96,0.00,,,0.18,0.00,VWS V14.01,2013-05-10 11:57:00,
2013-05-10 08:01:00,61.6,60.2,29.78,WNW,300,0.0,0.0,95,0.00,,,0.18,0.00,VWS V14.01,2013-05-10 12:01:00,
2013-05-10 08:02:00,61.6,60.5,29.78,WNW,300,0.0,0.0,96,0.00,,,0.18,0.00,VWS V14.01,2013-05-10 12:02:00,
2013-05-10 08:06:00,61.8,60.4,29.78,WNW,288,0.0,6.0,95,0.00,,,0.18,0.00,VWS V14.01,2013-05-10 12:06:00,
2013-05-10 08:07:00,61.8,60.4,29.78,WNW,288,3.0,5.0,95,0.00,,,0.18,0.00,VWS V14.01,2013-05-10 12:07:00,
2013-05-10 08:11:00,61.9,60.5,29.78,West,281,0.0,1.0,95,0.00,,,0.18,0.00,VWS V14.01,2013-05-10 12:11:00,
2013-05-10 08:12:00,61.9,60.5,29.78,West,275,5.0,5.0,95,0.00,,,0.18,0.00,VWS V14.01,2013-05-10 12:12:00,
2013-05-10 08:16:00,62.1,60.7,29.78,West,277,2.0,4.0,95,0.00,,,0.18,0.00,VWS V14.01,2013-05-10 12:16:00,
2013-05-10 08:17:00,62.1,60.7,29.78,West,277,0.0,4.0,95,0.00,,,0.18,0.00,VWS V14.01,2013-05-10 12:17:00,
2013-05-10 08:21:00,62.2,60.8,29.78,West,276,0.0,4.0,95,0.00,,,0.18,0.00,VWS V14.01,2013-05-10 12:21:00,
2013-05-10 08:22:00,62.2,60.8,29.78,West,276,0.0,0.0,95,0.00,,,0.18,0.00,VWS V14.01,2013-05-10 12:22:00,
2013-05-10 08:26:00,62.4,60.7,29.78,West,269,1.0,7.0,94,0.00,,,0.18,0.00,VWS V14.01,2013-05-10 12:26:00,
2013-05-10 08:27:00,62.4,60.7,29.78,West,269,0.0,7.0,94,0.00,,,0.18,0.00,VWS V14.01,2013-05-10 12:27:00,
2013-05-10 08:31:00,62.6,60.8,29.78,WNW,294,0.0,1.0,94,0.00,,,0.18,0.00,VWS V14.01,2013-05-10 12:31:00,
2013-05-10 08:32:00,62.7,61.0,29.78,WNW,294,1.0,2.0,94,0.00,,,0.18,0.00,VWS V14.01,2013-05-10 12:32:00,
2013-05-10 08:36:00,62.8,61.0,29.78,WNW,288,7.0,8.0,94,0.00,,,0.18,0.00,VWS V14.01,2013-05-10 12:36:00,
2013-05-10 08:37:00,62.8,60.8,29.78,West,270,7.0,8.0,93,0.00,,,0.18,0.00,VWS V14.01,2013-05-10 12:37:00,
2013-05-10 08:41:00,63.0,61.0,29.78,West,260,1.0,4.0,93,0.00,,,0.18,0.00,VWS V14.01,2013-05-10 12:41:00,
2013-05-10 08:42:00,63.1,61.0,29.78,West,270,3.0,4.0,93,0.00,,,0.18,0.00,VWS V14.01,2013-05-10 12:42:00,
2013-05-10 08:46:00,63.2,61.2,29.78,West,273,1.0,1.0,93,0.00,,,0.18,0.00,VWS V14.01,2013-05-10 12:46:00,
2013-05-10 08:47:00,63.2,61.2,29.78,West,273,0.0,0.0,93,0.00,,,0.18,0.00,VWS V14.01,2013-05-10 12:47:00,
2013-05-10 08:51:00,63.4,61.0,29.78,WNW,285,1.0,4.0,92,0.00,,,0.18,0.00,VWS V14.01,2013-05-10 12:51:00,
2013-05-10 08:52:00,63.4,61.0,29.78,WNW,285,2.0,4.0,92,0.00,,,0.18,0.00,VWS V14.01,2013-05-10 12:52:00,
2013-05-10 08:53:00,63.4,61.0,29.78,WNW,284,2.0,2.0,92,0.00,,,0.18,0.00,VWS V14.01,2013-05-10 12:53:00,
2013-05-10 08:57:00,63.5,61.1,29.78,West,276,0.0,4.0,92,0.00,,,0.18,0.00,VWS V14.01,2013-05-10 12:57:00,
2013-05-10 08:58:00,63.5,61.1,29.78,West,276,1.0,1.0,92,0.00,,,0.18,0.00,VWS V14.01,2013-05-10 12:58:00,
2013-05-10 09:02:00,63.5,60.8,29.78,West,280,0.0,8.0,91,0.00,,,0.18,0.00,VWS V14.01,2013-05-10 13:02:00,
2013-05-10 09:03:00,63.5,61.1,29.78,West,278,5.0,6.0,92,0.00,,,0.18,0.00,VWS V14.01,2013-05-10 13:03:00,
2013-05-10 09:07:00,63.6,60.9,29.78,SW,235,2.0,7.0,91,0.00,,,0.18,0.00,VWS V14.01,2013-05-10 13:07:00,
2013-05-10 09:08:00,63.6,60.9,29.78,West,268,2.0,6.0,91,0.00,,,0.18,0.00,VWS V14.01,2013-05-10 13:08:00,
2013-05-10 09:12:00,63.6,60.9,29.78,West,266,0.0,8.0,91,0.00,,,0.18,0.00,VWS V14.01,2013-05-10 13:12:00,
2013-05-10 09:13:00,63.6,60.9,29.78,West,276,4.0,6.0,91,0.00,,,0.18,0.00,VWS V14.01,2013-05-10 13:13:00,
2013-05-10 09:17:00,63.7,61.0,29.78,WSW,254,3.0,5.0,91,0.00,,,0.18,0.00,VWS V14.01,2013-05-10 13:17:00,
2013-05-10 09:18:00,63.7,61.0,29.78,WSW,256,6.0,6.0,91,0.00,,,0.18,0.00,VWS V14.01,2013-05-10 13:18:00,
2013-05-10 09:22:00,63.8,61.1,29.78,West,260,7.0,7.0,91,0.00,,,0.18,0.00,VWS V14.01,2013-05-10 13:22:00,
2013-05-10 09:23:00,63.8,60.8,29.78,WNW,288,2.0,2.0,90,0.00,,,0.18,0.00,VWS V14.01,2013-05-10 13:23:00,
2013-05-10 09:27:00,63.9,60.9,29.78,WNW,284,0.0,8.0,90,0.00,,,0.18,0.00,VWS V14.01,2013-05-10 13:27:00,
2013-05-10 09:28:00,63.9,60.9,29.78,WNW,284,0.0,0.0,90,0.00,,,0.18,0.00,VWS V14.01,2013-05-10 13:28:00,
2013-05-10 09:32:00,64.1,61.1,29.78,WNW,284,0.0,2.0,90,0.00,,,0.18,0.00,VWS V14.01,2013-05-10 13:32:00,
2013-05-10 09:33:00,64.1,61.4,29.78,WNW,287,1.0,2.0,91,0.00,,,0.18,0.00,VWS V14.01,2013-05-10 13:33:00,
2013-05-10 09:34:00,64.1,61.1,29.78,WNW,290,0.0,3.0,90,0.00,,,0.18,0.00,VWS V14.01,2013-05-10 13:34:00,
2013-05-10 09:37:00,64.2,61.2,29.78,West,270,0.0,1.0,90,0.00,,,0.18,0.00,VWS V14.01,2013-05-10 13:37:00,
2013-05-10 09:38:00,64.2,61.5,29.78,NW,309,0.0,1.0,91,0.00,,,0.18,0.00,VWS V14.01,2013-05-10 13:38:00,
2013-05-10 09:39:00,64.2,61.2,29.78,NW,309,0.0,1.0,90,0.00,,,0.18,0.00,VWS V14.01,2013-05-10 13:39:00,
2013-05-10 09:42:00,64.3,61.3,29.78,WNW,282,7.0,7.0,90,0.00,,,0.18,0.00,VWS V14.01,2013-05-10 13:42:00,
2013-05-10 09:43:00,64.3,61.3,29.79,West,275,0.0,0.0,90,0.00,,,0.18,0.00,VWS V14.01,2013-05-10 13:43:00,
2013-05-10 09:44:00,64.4,61.4,29.78,West,275,1.0,1.0,90,0.00,,,0.18,0.00,VWS V14.01,2013-05-10 13:44:00,
2013-05-10 09:47:00,64.4,61.4,29.78,WNW,285,1.0,1.0,90,0.00,,,0.18,0.00,VWS V14.01,2013-05-10 13:47:00,
2013-05-10 09:48:00,64.5,61.5,29.78,NW,318,0.0,1.0,90,0.00,,,0.18,0.00,VWS V14.01,2013-05-10 13:48:00,
2013-05-10 09:49:00,64.5,61.5,29.78,NW,318,0.0,0.0,90,0.00,,,0.18,0.00,VWS V14.01,2013-05-10 13:49:00,
2013-05-10 09:52:00,64.7,61.7,29.78,WNW,284,0.0,2.0,90,0.00,,,0.18,0.00,VWS V14.01,2013-05-10 13:52:00,
2013-05-10 09:53:00,64.7,61.7,29.78,WNW,284,1.0,1.0,90,0.00,,,0.18,0.00,VWS V14.01,2013-05-10 13:53:00,
2013-05-10 09:54:00,64.8,61.5,29.79,WNW,298,2.0,3.0,89,0.00,,,0.18,0.00,VWS V14.01,2013-05-10 13:54:00,
2013-05-10 09:57:00,64.9,61.6,29.78,WNW,284,5.0,6.0,89,0.00,,,0.18,0.00,VWS V14.01,2013-05-10 13:57:00,
2013-05-10 09:58:00,64.9,61.6,29.79,WNW,291,3.0,6.0,89,0.00,,,0.18,0.00,VWS V14.01,2013-05-10 13:58:00,
2013-05-10 09:59:00,65.0,61.4,29.78,West,280,5.0,9.0,88,0.00,,,0.18,0.00,VWS V14.01,2013-05-10 13:59:00,
2013-05-10 10:02:00,65.0,61.4,29.78,NNW,327,2.0,2.0,88,0.00,,,0.18,0.00,VWS V14.01,2013-05-10 14:02:00,
2013-05-10 10:03:00,65.1,61.5,29.78,West,272,4.0,6.0,88,0.00,,,0.18,0.00,VWS V14.01,2013-05-10 14:03:00,
2013-05-10 10:04:00,65.1,61.5,29.78,West,278,6.0,8.0,88,0.00,,,0.18,0.00,VWS V14.01,2013-05-10 14:04:00,
2013-05-10 10:07:00,65.1,61.1,29.78,WNW,288,1.0,8.0,87,0.00,,,0.18,0.00,VWS V14.01,2013-05-10 14:07:00,
2013-05-10 10:08:00,65.1,61.1,29.78,WNW,288,0.0,0.0,87,0.00,,,0.18,0.00,VWS V14.01,2013-05-10 14:08:00,
2013-05-10 10:09:00,65.1,61.1,29.78,West,265,2.0,7.0,87,0.00,,,0.18,0.00,VWS V14.01,2013-05-10 14:09:00,
2013-05-10 10:12:00,65.1,61.1,29.78,WNW,291,4.0,9.0,87,0.00,,,0.18,0.00,VWS V14.01,2013-05-10 14:12:00,
2013-05-10 10:13:00,65.1,61.1,29.78,WNW,292,2.0,2.0,87,0.00,,,0.18,0.00,VWS V14.01,2013-05-10 14:13:00,
2013-05-10 10:14:00,65.2,61.2,29.78,West,280,4.0,4.0,87,0.00,,,0.18,0.00,VWS V14.01,2013-05-10 14:14:00,
2013-05-10 10:18:00,65.3,61.0,29.78,NW,325,0.0,8.0,86,0.00,,,0.18,0.00,VWS V14.01,2013-05-10 14:18:00,
2013-05-10 10:19:00,65.4,61.1,29.78,North,355,0.0,0.0,86,0.00,,,0.18,0.00,VWS V14.01,2013-05-10 14:19:00,
2013-05-10 10:23:00,65.6,61.3,29.79,NW,304,0.0,4.0,86,0.00,,,0.18,0.00,VWS V14.01,2013-05-10 14:23:00,
2013-05-10 10:24:00,65.6,61.3,29.79,NW,309,0.0,2.0,86,0.00,,,0.18,0.00,VWS V14.01,2013-05-10 14:24:00,
2013-05-10 10:28:00,65.6,61.3,29.79,NW,319,2.0,3.0,86,0.00,,,0.18,0.00,VWS V14.01,2013-05-10 14:28:00,
2013-05-10 10:29:00,65.6,61.0,29.79,NNW,329,2.0,6.0,85,0.00,,,0.18,0.00,VWS V14.01,2013-05-10 14:29:00,
2013-05-10 10:33:00,65.5,61.2,29.79,North,9,7.0,7.0,86,0.00,,,0.18,0.00,VWS V14.01,2013-05-10 14:33:00,
2013-05-10 10:34:00,65.5,60.9,29.79,NNW,335,2.0,3.0,85,0.00,,,0.18,0.00,VWS V14.01,2013-05-10 14:34:00,
2013-05-10 10:38:00,65.5,61.2,29.78,NNE,19,7.0,7.0,86,0.00,,,0.18,0.00,VWS V14.01,2013-05-10 14:38:00,
2013-05-10 10:39:00,65.6,61.3,29.79,North,360,2.0,6.0,86,0.00,,,0.18,0.00,VWS V14.01,2013-05-10 14:39:00,
2013-05-10 10:43:00,65.7,61.4,29.79,NNW,348,1.0,1.0,86,0.00,,,0.18,0.00,VWS V14.01,2013-05-10 14:43:00,
2013-05-10 10:44:00,65.8,61.5,29.79,NW,318,4.0,5.0,86,0.00,,,0.18,0.00,VWS V14.01,2013-05-10 14:44:00,
2013-05-10 10:45:00,65.9,61.6,29.79,NNW,330,1.0,5.0,86,0.00,,,0.18,0.00,VWS V14.01,2013-05-10 14:45:00,
2013-05-10 10:48:00,66.1,61.1,29.79,NW,306,3.0,3.0,84,0.00,,,0.18,0.00,VWS V14.01,2013-05-10 14:48:00,
2013-05-10 10:49:00,66.1,60.8,29.79,WNW,298,4.0,11.0,83,0.00,,,0.18,0.00,VWS V14.01,2013-05-10 14:49:00,
2013-05-10 10:50:00,66.0,60.7,29.79,North,360,4.0,11.0,83,0.00,,,0.18,0.00,VWS V14.01,2013-05-10 14:50:00,
2013-05-10 10:53:00,65.9,60.6,29.79,WNW,283,1.0,1.0,83,0.00,,,0.18,0.00,VWS V14.01,2013-05-10 14:53:00,
2013-05-10 10:54:00,65.9,60.9,29.79,WNW,287,0.0,1.0,84,0.00,,,0.18,0.00,VWS V14.01,2013-05-10 14:54:00,
2013-05-10 10:55:00,65.9,60.9,29.79,WNW,287,0.0,1.0,84,0.00,,,0.18,0.00,VWS V14.01,2013-05-10 14:55:00,
2013-05-10 10:58:00,66.0,61.0,29.79,WNW,293,1.0,1.0,84,0.00,,,0.18,0.00,VWS V14.01,2013-05-10 14:58:00,
2013-05-10 10:59:00,66.1,61.1,29.79,WNW,293,0.0,1.0,84,0.00,,,0.18,0.00,VWS V14.01,2013-05-10 14:59:00,
2013-05-10 11:00:00,66.1,60.8,29.79,NNW,339,1.0,4.0,83,0.00,,,0.18,0.00,VWS V14.01,2013-05-10 15:00:00,
2013-05-10 11:03:00,66.1,60.8,29.79,West,281,3.0,4.0,83,0.00,,,0.18,0.00,VWS V14.01,2013-05-10 15:03:00,
2013-05-10 11:04:00,66.1,60.8,29.79,North,5,4.0,6.0,83,0.00,,,0.18,0.00,VWS V14.01,2013-05-10 15:04:00,
2013-05-10 11:05:00,66.1,60.8,29.79,WNW,291,4.0,8.0,83,0.00,,,0.18,0.00,VWS V14.01,2013-05-10 15:05:00,
2013-05-10 11:08:00,66.1,60.8,29.79,North,355,3.0,9.0,83,0.00,,,0.18,0.00,VWS V14.01,2013-05-10 15:08:00,
2013-05-10 11:09:00,66.1,60.8,29.79,North,5,1.0,1.0,83,0.00,,,0.18,0.00,VWS V14.01,2013-05-10 15:09:00,
2013-05-10 11:10:00,66.1,60.8,29.79,North,351,1.0,2.0,83,0.00,,,0.18,0.00,VWS V14.01,2013-05-10 15:10:00,
2013-05-10 11:13:00,66.1,60.8,29.79,North,5,3.0,9.0,83,0.00,,,0.18,0.00,VWS V14.01,2013-05-10 15:13:00,
2013-05-10 11:14:00,66.1,60.5,29.79,North,360,6.0,6.0,82,0.00,,,0.18,0.00,VWS V14.01,2013-05-10 15:14:00,
2013-05-10 11:15:00,66.1,60.5,29.79,NNW,346,0.0,0.0,82,0.00,,,0.18,0.00,VWS V14.01,2013-05-10 15:15:00,
2013-05-10 11:18:00,66.2,60.5,29.79,North,355,2.0,7.0,82,0.00,,,0.18,0.00,VWS V14.01,2013-05-10 15:18:00,
2013-05-10 11:19:00,66.2,60.5,29.79,NNW,346,2.0,2.0,82,0.00,,,0.18,0.00,VWS V14.01,2013-05-10 15:19:00,
2013-05-10 11:20:00,66.2,60.5,29.79,NNE,27,4.0,8.0,82,0.00,,,0.18,0.00,VWS V14.01,2013-05-10 15:20:00,
2013-05-10 11:23:00,66.2,60.5,29.79,NNE,14,3.0,3.0,82,0.00,,,0.18,0.00,VWS V14.01,2013-05-10 15:23:00,
2013-05-10 11:24:00,66.2,60.5,29.79,NNW,346,3.0,3.0,82,0.00,,,0.18,0.00,VWS V14.01,2013-05-10 15:24:00,
2013-05-10 11:25:00,66.2,60.2,29.79,NNW,346,0.0,0.0,81,0.00,,,0.18,0.00,VWS V14.01,2013-05-10 15:25:00,
2013-05-10 11:28:00,66.2,60.5,29.79,NNW,346,2.0,2.0,82,0.00,,,0.18,0.00,VWS V14.01,2013-05-10 15:28:00,
2013-05-10 11:29:00,66.3,60.7,29.80,NNW,329,1.0,4.0,82,0.00,,,0.18,0.00,VWS V14.01,2013-05-10 15:29:00,
2013-05-10 11:30:00,66.3,60.7,29.79,NNW,343,5.0,5.0,82,0.00,,,0.18,0.00,VWS V14.01,2013-05-10 15:30:00,
2013-05-10 11:33:00,66.4,60.4,29.79,North,360,5.0,5.0,81,0.00,,,0.18,0.00,VWS V14.01,2013-05-10 15:33:00,
2013-05-10 11:34:00,66.4,60.4,29.79,North,355,1.0,4.0,81,0.00,,,0.18,0.00,VWS V14.01,2013-05-10 15:34:00,
2013-05-10 11:35:00,66.4,60.4,29.79,North,355,2.0,2.0,81,0.00,,,0.18,0.00,VWS V14.01,2013-05-10 15:35:00,
2013-05-10 11:38:00,66.5,60.5,29.79,NW,318,4.0,5.0,81,0.00,,,0.18,0.00,VWS V14.01,2013-05-10 15:38:00,
2013-05-10 11:39:00,66.5,60.5,29.79,NW,304,3.0,3.0,81,0.00,,,0.18,0.00,VWS V14.01,2013-05-10 15:39:00,
2013-05-10 11:40:00,66.5,60.8,29.79,WNW,286,1.0,4.0,82,0.00,,,0.18,0.00,VWS V14.01,2013-05-10 15:40:00,
2013-05-10 11:43:00,66.7,61.0,29.79,WNW,289,0.0,3.0,82,0.00,,,0.18,0.00,VWS V14.01,2013-05-10 15:43:00,
2013-05-10 11:44:00,66.7,60.7,29.79,NNW,327,3.0,3.0,81,0.00,,,0.18,0.00,VWS V14.01,2013-05-10 15:44:00,
2013-05-10 11:45:00,66.8,61.1,29.79,North,355,4.0,7.0,82,0.00,,,0.18,0.00,VWS V14.01,2013-05-10 15:45:00,
2013-05-10 11:48:00,66.9,60.9,29.79,West,275,1.0,6.0,81,0.00,,,0.18,0.00,VWS V14.01,2013-05-10 15:48:00,
2013-05-10 11:49:00,66.9,60.5,29.79,West,273,2.0,2.0,80,0.00,,,0.18,0.00,VWS V14.01,2013-05-10 15:49:00,
2013-05-10 11:50:00,66.9,60.5,29.79,West,273,0.0,2.0,80,0.00,,,0.18,0.00,VWS V14.01,2013-05-10 15:50:00,
2013-05-10 11:53:00,66.9,60.9,29.79,West,264,0.0,5.0,81,0.00,,,0.18,0.00,VWS V14.01,2013-05-10 15:53:00,
2013-05-10 11:54:00,66.9,60.9,29.79,West,265,3.0,5.0,81,0.00,,,0.18,0.00,VWS V14.01,2013-05-10 15:54:00,
2013-05-10 11:55:00,66.9,60.9,29.79,West,265,2.0,5.0,81,0.00,,,0.18,0.00,VWS V14.01,2013-05-10 15:55:00,
2013-05-10 11:58:00,67.0,60.6,29.79,West,269,6.0,7.0,80,0.00,,,0.18,0.00,VWS V14.01,2013-05-10 15:58:00,
2013-05-10 11:59:00,67.0,60.6,29.79,SW,234,0.0,3.0,80,0.00,,,0.18,0.00,VWS V14.01,2013-05-10 15:59:00,
2013-05-10 12:00:00,67.0,60.6,29.79,NNW,341,5.0,5.0,80,0.00,,,0.18,0.00,VWS V14.01,2013-05-10 16:00:00,
2013-05-10 12:03:00,67.0,60.6,29.79,NNW,341,1.0,3.0,80,0.00,,,0.18,0.00,VWS V14.01,2013-05-10 16:03:00,
2013-05-10 12:04:00,67.0,61.0,29.79,NNW,341,0.0,1.0,81,0.00,,,0.18,0.00,VWS V14.01,2013-05-10 16:04:00,
2013-05-10 12:05:00,67.0,61.0,29.79,NNW,341,0.0,1.0,81,0.00,,,0.18,0.00,VWS V14.01,2013-05-10 16:05:00,
2013-05-10 12:09:00,66.9,60.9,29.79,WNW,294,1.0,4.0,81,0.00,,,0.18,0.00,VWS V14.01,2013-05-10 16:09:00,
2013-05-10 12:10:00,66.9,60.5,29.79,WNW,294,0.0,1.0,80,0.00,,,0.18,0.00,VWS V14.01,2013-05-10 16:10:00,
2013-05-10 12:14:00,66.8,60.4,29.79,WNW,293,3.0,4.0,80,0.00,,,0.18,0.00,VWS V14.01,2013-05-10 16:14:00,
2013-05-10 12:15:00,66.8,60.4,29.79,North,5,2.0,2.0,80,0.00,,,0.18,0.00,VWS V14.01,2013-05-10 16:15:00,
2013-05-10 12:19:00,66.5,60.5,29.80,North,360,3.0,3.0,81,0.00,,,0.18,0.00,VWS V14.01,2013-05-10 16:19:00,
2013-05-10 12:20:00,66.5,60.5,29.80,North,355,0.0,0.0,81,0.00,,,0.18,0.00,VWS V14.01,2013-05-10 16:20:00,
2013-05-10 12:21:00,66.5,60.5,29.80,North,355,2.0,2.0,81,0.00,,,0.18,0.00,VWS V14.01,2013-05-10 16:21:00,
2013-05-10 12:24:00,66.4,60.4,29.80,NW,326,0.0,0.0,81,0.00,,,0.18,0.00,VWS V14.01,2013-05-10 16:24:00,
2013-05-10 12:25:00,66.3,60.7,29.80,NW,326,0.0,0.0,82,0.00,,,0.18,0.00,VWS V14.01,2013-05-10 16:25:00,
2013-05-10 12:26:00,66.3,60.7,29.80,NW,319,0.0,4.0,82,0.00,,,0.18,0.00,VWS V14.01,2013-05-10 16:26:00,
2013-05-10 12:29:00,66.3,60.7,29.80,NW,323,0.0,0.0,82,0.00,,,0.18,0.00,VWS V14.01,2013-05-10 16:29:00,
2013-05-10 12:30:00,66.3,61.0,29.80,NW,323,1.0,2.0,83,0.00,,,0.18,0.00,VWS V14.01,2013-05-10 16:30:00,
2013-05-10 12:31:00,66.3,61.0,29.80,NW,323,0.0,3.0,83,0.00,,,0.18,0.00,VWS V14.01,2013-05-10 16:31:00,
2013-05-10 12:34:00,66.1,60.8,29.80,WNW,296,0.0,0.0,83,0.00,,,0.18,0.00,VWS V14.01,2013-05-10 16:34:00,
2013-05-10 12:35:00,66.1,60.8,29.80,WNW,296,0.0,1.0,83,0.00,,,0.18,0.00,VWS V14.01,2013-05-10 16:35:00,
2013-05-10 12:36:00,66.0,61.0,29.80,WNW,296,0.0,1.0,84,0.00,,,0.18,0.00,VWS V14.01,2013-05-10 16:36:00,
2013-05-10 12:39:00,65.9,60.9,29.80,West,275,1.0,2.0,84,0.00,,,0.18,0.00,VWS V14.01,2013-05-10 16:39:00,
2013-05-10 12:40:00,65.8,61.2,29.80,West,275,0.0,0.0,85,0.00,,,0.18,0.00,VWS V14.01,2013-05-10 16:40:00,
2013-05-10 12:41:00,65.8,61.2,29.80,West,272,3.0,6.0,85,0.01,,,0.19,0.00,VWS V14.01,2013-05-10 16:41:00,
2013-05-10 12:44:00,65.6,61.3,29.80,West,263,2.0,5.0,86,0.01,,,0.19,0.00,VWS V14.01,2013-05-10 16:44:00,
2013-05-10 12:45:00,65.5,60.9,29.80,West,263,0.0,0.0,85,0.01,,,0.19,0.00,VWS V14.01,2013-05-10 16:45:00,
2013-05-10 12:46:00,65.5,61.2,29.80,West,263,0.0,0.0,86,0.01,,,0.19,0.00,VWS V14.01,2013-05-10 16:46:00,
2013-05-10 12:49:00,65.4,61.1,29.80,West,259,0.0,0.0,86,0.01,,,0.19,0.00,VWS V14.01,2013-05-10 16:49:00,
2013-05-10 12:50:00,65.4,61.4,29.80,West,259,0.0,0.0,87,0.01,,,0.19,0.00,VWS V14.01,2013-05-10 16:50:00,
2013-05-10 12:51:00,65.4,61.4,29.80,West,259,0.0,0.0,87,0.01,,,0.19,0.00,VWS V14.01,2013-05-10 16:51:00,
2013-05-10 12:54:00,65.3,61.3,29.80,WNW,290,0.0,0.0,87,0.01,,,0.19,0.00,VWS V14.01,2013-05-10 16:54:00,
2013-05-10 12:55:00,65.3,61.7,29.80,WNW,290,1.0,3.0,88,0.01,,,0.19,0.00,VWS V14.01,2013-05-10 16:55:00,
2013-05-10 12:56:00,65.3,61.7,29.80,WNW,289,0.0,1.0,88,0.01,,,0.19,0.00,VWS V14.01,2013-05-10 16:56:00,
2013-05-10 12:59:00,65.2,61.6,29.80,WNW,288,1.0,3.0,88,0.01,,,0.19,0.00,VWS V14.01,2013-05-10 16:59:00,
2013-05-10 13:00:00,65.1,61.5,29.80,WNW,288,0.0,2.0,88,0.01,,,0.19,0.00,VWS V14.01,2013-05-10 17:00:00,
2013-05-10 13:01:00,65.1,61.5,29.80,WNW,288,0.0,0.0,88,0.01,,,0.19,0.00,VWS V14.01,2013-05-10 17:01:00,
2013-05-10 13:04:00,65.0,61.7,29.80,West,278,4.0,9.0,89,0.01,,,0.19,0.00,VWS V14.01,2013-05-10 17:04:00,
2013-05-10 13:05:00,65.0,61.4,29.80,WNW,299,1.0,2.0,88,0.01,,,0.19,0.00,VWS V14.01,2013-05-10 17:05:00,
2013-05-10 13:06:00,65.0,61.4,29.80,WNW,299,0.0,1.0,88,0.01,,,0.19,0.00,VWS V14.01,2013-05-10 17:06:00,
2013-05-10 13:09:00,64.9,61.3,29.80,WNW,296,4.0,4.0,88,0.01,,,0.19,0.00,VWS V14.01,2013-05-10 17:09:00,
2013-05-10 13:10:00,64.9,61.3,29.80,WNW,296,1.0,2.0,88,0.01,,,0.19,0.00,VWS V14.01,2013-05-10 17:10:00,
2013-05-10 13:11:00,64.9,61.3,29.80,WNW,296,0.0,1.0,88,0.01,,,0.19,0.00,VWS V14.01,2013-05-10 17:11:00,
2013-05-10 13:14:00,64.9,61.3,29.79,WNW,288,1.0,2.0,88,0.01,,,0.19,0.00,VWS V14.01,2013-05-10 17:14:00,
2013-05-10 13:15:00,64.9,60.9,29.80,WNW,288,2.0,3.0,87,0.01,,,0.19,0.00,VWS V14.01,2013-05-10 17:15:00,
2013-05-10 13:16:00,64.9,60.9,29.80,WNW,288,0.0,1.0,87,0.01,,,0.19,0.00,VWS V14.01,2013-05-10 17:16:00,
2013-05-10 13:19:00,64.8,61.2,29.79,WNW,288,0.0,0.0,88,0.01,,,0.19,0.00,VWS V14.01,2013-05-10 17:19:00,
2013-05-10 13:20:00,64.8,61.2,29.79,WNW,288,0.0,2.0,88,0.01,,,0.19,0.00,VWS V14.01,2013-05-10 17:20:00,
2013-05-10 13:21:00,64.8,61.2,29.79,WNW,288,0.0,1.0,88,0.01,,,0.19,0.00,VWS V14.01,2013-05-10 17:21:00,
2013-05-10 13:24:00,64.8,60.8,29.79,WNW,286,0.0,4.0,87,0.01,,,0.19,0.00,VWS V14.01,2013-05-10 17:24:00,
2013-05-10 13:25:00,64.8,60.8,29.79,WNW,291,5.0,5.0,87,0.01,,,0.19,0.00,VWS V14.01,2013-05-10 17:25:00,
2013-05-10 13:26:00,64.8,60.8,29.79,WNW,291,2.0,5.0,87,0.01,,,0.19,0.00,VWS V14.01,2013-05-10 17:26:00,
2013-05-10 13:27:00,64.8,60.8,29.79,WNW,292,0.0,4.0,87,0.01,,,0.19,0.00,VWS V14.01,2013-05-10 17:27:00,
2013-05-10 13:29:00,64.7,60.8,29.79,WNW,290,0.0,2.0,87,0.01,,,0.19,0.00,VWS V14.01,2013-05-10 17:29:00,
2013-05-10 13:30:00,64.6,60.7,29.79,WNW,290,0.0,1.0,87,0.01,,,0.19,0.00,VWS V14.01,2013-05-10 17:30:00,
2013-05-10 13:31:00,64.6,61.0,29.79,WNW,290,1.0,1.0,88,0.01,,,0.19,0.00,VWS V14.01,2013-05-10 17:31:00,
2013-05-10 13:32:00,64.6,61.0,29.79,WNW,290,0.0,2.0,88,0.01,,,0.19,0.00,VWS V14.01,2013-05-10 17:32:00,
2013-05-10 13:35:00,64.5,60.9,29.79,NW,304,0.0,1.0,88,0.01,,,0.19,0.00,VWS V14.01,2013-05-10 17:35:00,
2013-05-10 13:36:00,64.5,61.2,29.79,NW,304,3.0,3.0,89,0.01,,,0.19,0.00,VWS V14.01,2013-05-10 17:36:00,
2013-05-10 13:37:00,64.4,60.8,29.79,NW,306,1.0,3.0,88,0.01,,,0.19,0.00,VWS V14.01,2013-05-10 17:37:00,
2013-05-10 13:40:00,64.4,61.1,29.79,NW,305,1.0,3.0,89,0.01,,,0.19,0.00,VWS V14.01,2013-05-10 17:40:00,
2013-05-10 13:41:00,64.4,61.1,29.79,NW,305,0.0,0.0,89,0.00,,,0.19,0.00,VWS V14.01,2013-05-10 17:41:00,
2013-05-10 13:42:00,64.4,61.1,29.79,NW,305,0.0,1.0,89,0.00,,,0.19,0.00,VWS V14.01,2013-05-10 17:42:00,
2013-05-10 13:45:00,64.4,61.1,29.79,NW,305,0.0,0.0,89,0.00,,,0.19,0.00,VWS V14.01,2013-05-10 17:45:00,
2013-05-10 13:46:00,64.4,61.1,29.80,NW,305,0.0,0.0,89,0.00,,,0.19,0.00,VWS V14.01,2013-05-10 17:46:00,
2013-05-10 13:47:00,64.5,61.2,29.80,WNW,294,3.0,6.0,89,0.00,,,0.19,0.00,VWS V14.01,2013-05-10 17:47:00,
2013-05-10 13:50:00,64.5,61.2,29.79,WNW,294,2.0,2.0,89,0.00,,,0.19,0.00,VWS V14.01,2013-05-10 17:50:00,
2013-05-10 13:51:00,64.6,61.6,29.79,WNW,294,0.0,1.0,90,0.00,,,0.19,0.00,VWS V14.01,2013-05-10 17:51:00,
2013-05-10 13:52:00,64.6,61.6,29.79,WNW,294,2.0,2.0,90,0.00,,,0.19,0.00,VWS V14.01,2013-05-10 17:52:00,
2013-05-10 13:55:00,64.7,61.4,29.79,WNW,282,1.0,7.0,89,0.00,,,0.19,0.00,VWS V14.01,2013-05-10 17:55:00,
2013-05-10 13:56:00,64.7,61.4,29.80,WNW,282,0.0,3.0,89,0.00,,,0.19,0.00,VWS V14.01,2013-05-10 17:56:00,
2013-05-10 13:57:00,64.7,61.4,29.80,WNW,282,0.0,3.0,89,0.00,,,0.19,0.00,VWS V14.01,2013-05-10 17:57:00,
2013-05-10 14:00:00,64.7,61.4,29.79,WNW,282,3.0,4.0,89,0.00,,,0.19,0.00,VWS V14.01,2013-05-10 18:00:00,
2013-05-10 14:01:00,64.7,61.4,29.80,WNW,282,3.0,4.0,89,0.00,,,0.19,0.00,VWS V14.01,2013-05-10 18:01:00,
2013-05-10 14:02:00,64.7,61.4,29.79,WNW,282,0.0,0.0,89,0.00,,,0.19,0.00,VWS V14.01,2013-05-10 18:02:00,
2013-05-10 14:05:00,64.8,61.2,29.80,WNW,282,0.0,0.0,88,0.00,,,0.19,0.00,VWS V14.01,2013-05-10 18:05:00,
2013-05-10 14:06:00,64.8,61.5,29.79,WNW,282,0.0,1.0,89,0.00,,,0.19,0.00,VWS V14.01,2013-05-10 18:06:00,
2013-05-10 14:07:00,64.8,61.5,29.80,WNW,282,0.0,1.0,89,0.00,,,0.19,0.00,VWS V14.01,2013-05-10 18:07:00,
2013-05-10 14:10:00,64.9,61.6,29.80,WNW,289,1.0,4.0,89,0.00,,,0.19,0.00,VWS V14.01,2013-05-10 18:10:00,
2013-05-10 14:11:00,64.9,61.3,29.80,WNW,291,2.0,4.0,88,0.00,,,0.19,0.00,VWS V14.01,2013-05-10 18:11:00,
2013-05-10 14:12:00,64.9,61.3,29.80,WNW,292,0.0,2.0,88,0.00,,,0.19,0.00,VWS V14.01,2013-05-10 18:12:00,
2013-05-10 14:15:00,64.9,61.3,29.79,NNW,342,0.0,0.0,88,0.00,,,0.19,0.00,VWS V14.01,2013-05-10 18:15:00,
2013-05-10 14:16:00,64.9,61.3,29.80,NNW,342,1.0,1.0,88,0.00,,,0.19,0.00,VWS V14.01,2013-05-10 18:16:00,
2013-05-10 14:17:00,64.9,61.3,29.79,NNW,342,0.0,1.0,88,0.00,,,0.19,0.00,VWS V14.01,2013-05-10 18:17:00,
2013-05-10 14:20:00,64.8,61.2,29.79,WSW,240,0.0,4.0,88,0.00,,,0.19,0.00,VWS V14.01,2013-05-10 18:20:00,
2013-05-10 14:21:00,64.8,61.2,29.79,WSW,240,0.0,0.0,88,0.00,,,0.19,0.00,VWS V14.01,2013-05-10 18:21:00,
2013-05-10 14:22:00,64.8,61.2,29.79,NNW,341,5.0,5.0,88,0.00,,,0.19,0.00,VWS V14.01,2013-05-10 18:22:00,
2013-05-10 14:25:00,64.7,61.1,29.79,NNW,344,0.0,1.0,88,0.00,,,0.19,0.00,VWS V14.01,2013-05-10 18:25:00,
2013-05-10 14:26:00,64.7,61.1,29.79,NNW,344,0.0,1.0,88,0.00,,,0.19,0.00,VWS V14.01,2013-05-10 18:26:00,
2013-05-10 14:27:00,64.7,61.1,29.79,NNW,344,0.0,1.0,88,0.00,,,0.19,0.00,VWS V14.01,2013-05-10 18:27:00,
2013-05-10 14:28:00,64.7,61.4,29.79,NNW,344,0.0,0.0,89,0.00,,,0.19,0.00,VWS V14.01,2013-05-10 18:28:00,
2013-05-10 14:30:00,64.7,61.4,29.79,NNW,344,0.0,1.0,89,0.00,,,0.19,0.00,VWS V14.01,2013-05-10 18:30:00,
2013-05-10 14:31:00,64.7,61.4,29.79,NNW,344,0.0,0.0,89,0.00,,,0.19,0.00,VWS V14.01,2013-05-10 18:31:00,
2013-05-10 14:32:00,64.7,61.4,29.79,NNW,344,2.0,2.0,89,0.00,,,0.19,0.00,VWS V14.01,2013-05-10 18:32:00,
2013-05-10 14:33:00,64.7,61.4,29.79,NNW,344,0.0,0.0,89,0.00,,,0.19,0.00,VWS V14.01,2013-05-10 18:33:00,
2013-05-10 14:35:00,64.8,61.5,29.79,NNW,344,2.0,2.0,89,0.00,,,0.19,0.00,VWS V14.01,2013-05-10 18:35:00,
2013-05-10 14:36:00,64.8,61.5,29.79,NNW,348,5.0,5.0,89,0.00,,,0.19,0.00,VWS V14.01,2013-05-10 18:36:00,
2013-05-10 14:37:00,64.8,61.2,29.79,NNW,348,0.0,5.0,88,0.00,,,0.19,0.00,VWS V14.01,2013-05-10 18:37:00,
2013-05-10 14:38:00,64.8,61.2,29.78,NNE,14,5.0,6.0,88,0.00,,,0.19,0.00,VWS V14.01,2013-05-10 18:38:00,
2013-05-10 14:40:00,64.8,61.2,29.78,NNW,345,0.0,5.0,88,0.00,,,0.19,0.00,VWS V14.01,2013-05-10 18:40:00,
2013-05-10 14:41:00,64.8,61.2,29.78,NNW,345,0.0,0.0,88,0.00,,,0.19,0.00,VWS V14.01,2013-05-10 18:41:00,
2013-05-10 14:42:00,64.8,61.2,29.78,NNW,343,2.0,2.0,88,0.00,,,0.19,0.00,VWS V14.01,2013-05-10 18:42:00,
2013-05-10 14:43:00,64.8,61.2,29.78,NNW,343,0.0,0.0,88,0.00,,,0.19,0.00,VWS V14.01,2013-05-10 18:43:00,
2013-05-10 14:46:00,64.9,61.3,29.78,NNW,333,1.0,3.0,88,0.00,,,0.19,0.00,VWS V14.01,2013-05-10 18:46:00,
2013-05-10 14:47:00,64.9,61.3,29.78,NNW,331,1.0,1.0,88,0.00,,,0.19,0.00,VWS V14.01,2013-05-10 18:47:00,
2013-05-10 14:48:00,64.9,61.3,29.78,NNW,331,0.0,1.0,88,0.00,,,0.19,0.00,VWS V14.01,2013-05-10 18:48:00,
2013-05-10 14:51:00,65.1,61.5,29.78,NNW,331,0.0,4.0,88,0.00,,,0.19,0.00,VWS V14.01,2013-05-10 18:51:00,
2013-05-10 14:52:00,65.1,61.5,29.78,NNW,331,0.0,1.0,88,0.00,,,0.19,0.00,VWS V14.01,2013-05-10 18:52:00,
2013-05-10 14:53:00,65.2,61.6,29.78,NNW,331,0.0,3.0,88,0.00,,,0.19,0.00,VWS V14.01,2013-05-10 18:53:00,
2013-05-10 14:56:00,65.5,61.9,29.78,NNW,331,0.0,0.0,88,0.00,,,0.19,0.00,VWS V14.01,2013-05-10 18:56:00,
2013-05-10 14:57:00,65.6,62.0,29.78,NNW,339,4.0,5.0,88,0.00,,,0.19,0.00,VWS V14.01,2013-05-10 18:57:00,
2013-05-10 14:58:00,65.6,61.6,29.78,NW,321,2.0,2.0,87,0.00,,,0.19,0.00,VWS V14.01,2013-05-10 18:58:00,
2013-05-10 15:01:00,65.7,61.4,29.78,NNW,337,5.0,7.0,86,0.00,,,0.19,0.00,VWS V14.01,2013-05-10 19:01:00,
2013-05-10 15:02:00,65.7,61.1,29.78,North,351,5.0,7.0,85,0.00,,,0.19,0.00,VWS V14.01,2013-05-10 19:02:00,
2013-05-10 15:03:00,65.7,61.4,29.78,NNW,348,1.0,1.0,86,0.00,,,0.19,0.00,VWS V14.01,2013-05-10 19:03:00,
2013-05-10 15:06:00,65.9,62.2,29.78,NNW,342,5.0,5.0,88,0.00,,,0.19,0.00,VWS V14.01,2013-05-10 19:06:00,
2013-05-10 15:07:00,66.0,62.0,29.78,NNW,342,0.0,2.0,87,0.00,,,0.19,0.00,VWS V14.01,2013-05-10 19:07:00,
2013-05-10 15:08:00,66.0,62.0,29.78,NNW,342,3.0,3.0,87,0.00,,,0.19,0.00,VWS V14.01,2013-05-10 19:08:00,
2013-05-10 15:11:00,66.1,61.8,29.78,North,355,0.0,1.0,86,0.00,,,0.19,0.00,VWS V14.01,2013-05-10 19:11:00,
2013-05-10 15:12:00,66.1,61.5,29.78,WSW,254,1.0,6.0,85,0.00,,,0.19,0.00,VWS V14.01,2013-05-10 19:12:00,
2013-05-10 15:13:00,66.1,61.5,29.78,WNW,300,2.0,3.0,85,0.00,,,0.19,0.00,VWS V14.01,2013-05-10 19:13:00,
2013-05-10 15:16:00,66.2,61.9,29.78,WNW,300,0.0,0.0,86,0.00,,,0.19,0.00,VWS V14.01,2013-05-10 19:16:00,
2013-05-10 15:17:00,66.1,61.5,29.78,North,5,4.0,11.0,85,0.00,,,0.19,0.00,VWS V14.01,2013-05-10 19:17:00,
2013-05-10 15:18:00,66.1,61.5,29.78,North,5,0.0,2.0,85,0.00,,,0.19,0.00,VWS V14.01,2013-05-10 19:18:00,
2013-05-10 15:21:00,66.1,61.1,29.78,ENE,67,0.0,1.0,84,0.00,,,0.19,0.00,VWS V14.01,2013-05-10 19:21:00,
2013-05-10 15:22:00,66.1,61.1,29.78,East,86,3.0,6.0,84,0.00,,,0.19,0.00,VWS V14.01,2013-05-10 19:22:00,
2013-05-10 15:23:00,66.0,60.7,29.78,West,277,2.0,7.0,83,0.00,,,0.19,0.00,VWS V14.01,2013-05-10 19:23:00,
2013-05-10 15:26:00,65.9,60.9,29.77,NNW,342,1.0,1.0,84,0.00,,,0.19,0.00,VWS V14.01,2013-05-10 19:26:00,
2013-05-10 15:27:00,65.9,60.9,29.77,NNW,340,0.0,1.0,84,0.00,,,0.19,0.00,VWS V14.01,2013-05-10 19:27:00,
2013-05-10 15:28:00,65.9,61.3,29.77,NNW,333,0.0,3.0,85,0.00,,,0.19,0.00,VWS V14.01,2013-05-10 19:28:00,
2013-05-10 15:31:00,65.8,61.2,29.77,WSW,257,2.0,3.0,85,0.00,,,0.19,0.00,VWS V14.01,2013-05-10 19:31:00,
2013-05-10 15:32:00,65.8,61.2,29.77,WSW,257,1.0,1.0,85,0.00,,,0.19,0.00,VWS V14.01,2013-05-10 19:32:00,
2013-05-10 15:33:00,65.7,61.1,29.77,NW,326,6.0,8.0,85,0.00,,,0.19,0.00,VWS V14.01,2013-05-10 19:33:00,
2013-05-10 15:36:00,65.6,61.0,29.77,West,275,0.0,2.0,85,0.00,,,0.19,0.00,VWS V14.01,2013-05-10 19:36:00,
2013-05-10 15:37:00,65.5,60.5,29.77,West,275,0.0,0.0,84,0.00,,,0.19,0.00,VWS V14.01,2013-05-10 19:37:00,
2013-05-10 15:38:00,65.5,60.5,29.77,SSW,209,0.0,1.0,84,0.00,,,0.19,0.00,VWS V14.01,2013-05-10 19:38:00,
2013-05-10 15:39:00,65.5,60.9,29.77,West,264,1.0,1.0,85,0.00,,,0.19,0.00,VWS V14.01,2013-05-10 19:39:00,
2013-05-10 15:41:00,65.4,60.5,29.77,WNW,289,3.0,4.0,84,0.00,,,0.19,0.00,VWS V14.01,2013-05-10 19:41:00,
2013-05-10 15:42:00,65.4,60.5,29.77,WNW,289,0.0,0.0,84,0.00,,,0.19,0.00,VWS V14.01,2013-05-10 19:42:00,
2013-05-10 15:43:00,65.4,60.5,29.77,North,360,0.0,2.0,84,0.00,,,0.19,0.00,VWS V14.01,2013-05-10 19:43:00,
2013-05-10 15:44:00,65.4,60.8,29.77,North,360,0.0,0.0,85,0.00,,,0.19,0.00,VWS V14.01,2013-05-10 19:44:00,
2013-05-10 15:46:00,65.5,60.5,29.77,NW,325,0.0,1.0,84,0.00,,,0.19,0.00,VWS V14.01,2013-05-10 19:46:00,
2013-05-10 15:47:00,65.5,60.5,29.76,NW,326,0.0,1.0,84,0.00,,,0.19,0.00,VWS V14.01,2013-05-10 19:47:00,
2013-05-10 15:48:00,65.5,60.5,29.76,NW,326,0.0,1.0,84,0.00,,,0.19,0.00,VWS V14.01,2013-05-10 19:48:00,
2013-05-10 15:49:00,65.5,60.5,29.76,NW,325,0.0,3.0,84,0.00,,,0.19,0.00,VWS V14.01,2013-05-10 19:49:00,
2013-05-10 15:51:00,65.6,60.6,29.76,NNW,335,0.0,0.0,84,0.00,,,0.19,0.00,VWS V14.01,2013-05-10 19:51:00,
2013-05-10 15:53:00,65.6,60.6,29.76,NW,308,2.0,5.0,84,0.00,,,0.19,0.00,VWS V14.01,2013-05-10 19:53:00,
2013-05-10 15:54:00,65.6,60.6,29.76,NW,309,1.0,1.0,84,0.00,,,0.19,0.00,VWS V14.01,2013-05-10 19:54:00,
2013-05-10 15:57:00,65.8,60.8,29.76,NW,311,0.0,1.0,84,0.00,,,0.19,0.00,VWS V14.01,2013-05-10 19:57:00,
2013-05-10 15:58:00,65.9,60.9,29.76,NNW,331,3.0,8.0,84,0.00,,,0.19,0.00,VWS V14.01,2013-05-10 19:58:00,
2013-05-10 15:59:00,65.9,60.6,29.76,West,276,0.0,0.0,83,0.00,,,0.19,0.00,VWS V14.01,2013-05-10 19:59:00,
2013-05-10 16:02:00,66.3,61.0,29.76,North,360,1.0,1.0,83,0.00,,,0.19,0.00,VWS V14.01,2013-05-10 20:02:00,
2013-05-10 16:03:00,66.4,60.7,29.76,NW,311,0.0,2.0,82,0.00,,,0.19,0.00,VWS V14.01,2013-05-10 20:03:00,
2013-05-10 16:04:00,66.5,60.8,29.76,WNW,295,2.0,3.0,82,0.00,,,0.19,0.00,VWS V14.01,2013-05-10 20:04:00,
2013-05-10 16:07:00,66.9,61.2,29.75,WNW,295,0.0,0.0,82,0.00,,,0.19,0.00,VWS V14.01,2013-05-10 20:07:00,
2013-05-10 16:08:00,67.0,61.7,29.75,WNW,295,0.0,1.0,83,0.00,,,0.19,0.00,VWS V14.01,2013-05-10 20:08:00,
2013-05-10 16:09:00,67.1,61.1,29.75,West,277,0.0,2.0,81,0.00,,,0.19,0.00,VWS V14.01,2013-05-10 20:09:00,
2013-05-10 16:12:00,67.2,60.8,29.75,WNW,302,3.0,3.0,80,0.00,,,0.19,0.00,VWS V14.01,2013-05-10 20:12:00,
2013-05-10 16:13:00,67.1,60.7,29.75,WNW,301,0.0,1.0,80,0.00,,,0.19,0.00,VWS V14.01,2013-05-10 20:13:00,
2013-05-10 16:14:00,67.1,60.7,29.75,NNW,338,2.0,5.0,80,0.00,,,0.19,0.00,VWS V14.01,2013-05-10 20:14:00,
2013-05-10 16:17:00,67.0,61.0,29.75,NNE,16,3.0,3.0,81,0.00,,,0.19,0.00,VWS V14.01,2013-05-10 20:17:00,
2013-05-10 16:18:00,67.1,61.1,29.75,North,355,7.0,7.0,81,0.00,,,0.19,0.00,VWS V14.01,2013-05-10 20:18:00,
2013-05-10 16:19:00,67.1,61.1,29.75,North,5,1.0,3.0,81,0.00,,,0.19,0.00,VWS V14.01,2013-05-10 20:19:00,
2013-05-10 16:22:00,67.2,61.2,29.75,NNW,340,3.0,3.0,81,0.00,,,0.19,0.00,VWS V14.01,2013-05-10 20:22:00,
2013-05-10 16:23:00,67.2,61.2,29.75,NNE,28,3.0,4.0,81,0.00,,,0.19,0.00,VWS V14.01,2013-05-10 20:23:00,
2013-05-10 16:24:00,67.2,61.2,29.75,NNE,13,3.0,4.0,81,0.00,,,0.19,0.00,VWS V14.01,2013-05-10 20:24:00,
2013-05-10 16:28:00,67.0,60.6,29.75,NNW,340,2.0,6.0,80,0.00,,,0.19,0.00,VWS V14.01,2013-05-10 20:28:00,
2013-05-10 16:29:00,66.9,60.5,29.75,NNW,340,0.0,4.0,80,0.00,,,0.19,0.00,VWS V14.01,2013-05-10 20:29:00,
2013-05-10 16:33:00,66.9,60.9,29.76,North,5,6.0,6.0,81,0.00,,,0.19,0.00,VWS V14.01,2013-05-10 20:33:00,
2013-05-10 16:34:00,66.9,60.9,29.76,North,9,8.0,8.0,81,0.00,,,0.19,0.00,VWS V14.01,2013-05-10 20:34:00,
2013-05-10 16:38:00,67.2,60.8,29.75,NNE,33,0.0,1.0,80,0.00,,,0.19,0.00,VWS V14.01,2013-05-10 20:38:00,
2013-05-10 16:39:00,67.2,60.8,29.75,NE,35,4.0,4.0,80,0.00,,,0.19,0.00,VWS V14.01,2013-05-10 20:39:00,
2013-05-10 16:43:00,67.5,60.8,29.75,NE,42,4.0,4.0,79,0.00,,,0.19,0.00,VWS V14.01,2013-05-10 20:43:00,
2013-05-10 16:44:00,67.5,60.8,29.75,North,355,5.0,7.0,79,0.00,,,0.19,0.00,VWS V14.01,2013-05-10 20:44:00,
2013-05-10 16:48:00,67.3,60.2,29.75,North,360,4.0,4.0,78,0.00,,,0.19,0.00,VWS V14.01,2013-05-10 20:48:00,
2013-05-10 16:49:00,67.2,60.1,29.75,NNW,328,1.0,1.0,78,0.00,,,0.19,0.00,VWS V14.01,2013-05-10 20:49:00,
2013-05-10 16:53:00,67.1,60.4,29.75,NW,321,0.0,4.0,79,0.00,,,0.19,0.00,VWS V14.01,2013-05-10 20:53:00,
2013-05-10 16:54:00,67.1,60.4,29.75,NNW,338,4.0,6.0,79,0.00,,,0.19,0.00,VWS V14.01,2013-05-10 20:54:00,
2013-05-10 16:55:00,67.1,60.0,29.75,North,355,3.0,6.0,78,0.00,,,0.19,0.00,VWS V14.01,2013-05-10 20:55:00,
2013-05-10 16:58:00,67.2,60.1,29.75,NNW,336,5.0,9.0,78,0.00,,,0.19,0.00,VWS V14.01,2013-05-10 20:58:00,
2013-05-10 16:59:00,67.2,60.1,29.75,NE,40,3.0,8.0,78,0.00,,,0.19,0.00,VWS V14.01,2013-05-10 20:59:00,
2013-05-10 17:00:00,67.2,60.1,29.75,West,279,3.0,8.0,78,0.00,,,0.19,0.00,VWS V14.01,2013-05-10 21:00:00,
2013-05-10 17:03:00,67.2,59.8,29.75,North,355,6.0,9.0,77,0.00,,,0.19,0.00,VWS V14.01,2013-05-10 21:03:00,
2013-05-10 17:04:00,67.2,59.8,29.75,NNW,336,0.0,2.0,77,0.00,,,0.19,0.00,VWS V14.01,2013-05-10 21:04:00,
2013-05-10 17:05:00,67.2,59.8,29.75,NNW,336,0.0,2.0,77,0.00,,,0.19,0.00,VWS V14.01,2013-05-10 21:05:00,
2013-05-10 17:08:00,67.0,59.9,29.75,North,350,3.0,6.0,78,0.00,,,0.19,0.00,VWS V14.01,2013-05-10 21:08:00,
2013-05-10 17:09:00,67.0,60.3,29.75,North,350,0.0,1.0,79,0.00,,,0.19,0.00,VWS V14.01,2013-05-10 21:09:00,
2013-05-10 17:10:00,67.0,60.3,29.75,NNW,348,3.0,4.0,79,0.00,,,0.19,0.00,VWS V14.01,2013-05-10 21:10:00,
2013-05-10 17:13:00,67.0,59.9,29.75,NNE,13,0.0,4.0,78,0.00,,,0.19,0.00,VWS V14.01,2013-05-10 21:13:00,
2013-05-10 17:14:00,67.0,59.9,29.75,NNE,32,0.0,6.0,78,0.00,,,0.19,0.00,VWS V14.01,2013-05-10 21:14:00,
2013-05-10 17:15:00,67.0,59.9,29.75,NNW,339,8.0,8.0,78,0.00,,,0.19,0.00,VWS V14.01,2013-05-10 21:15:00,
2013-05-10 17:18:00,66.8,59.7,29.75,NNE,17,5.0,8.0,78,0.00,,,0.19,0.00,VWS V14.01,2013-05-10 21:18:00,
2013-05-10 17:19:00,66.7,59.6,29.75,NE,43,2.0,7.0,78,0.00,,,0.19,0.00,VWS V14.01,2013-05-10 21:19:00,
2013-05-10 17:20:00,66.6,59.5,29.75,ENE,78,8.0,8.0,78,0.00,,,0.19,0.00,VWS V14.01,2013-05-10 21:20:00,
2013-05-10 17:23:00,66.5,59.4,29.75,NE,45,8.0,8.0,78,0.00,,,0.19,0.00,VWS V14.01,2013-05-10 21:23:00,
2013-05-10 17:24:00,66.5,59.4,29.75,NE,44,5.0,8.0,78,0.00,,,0.19,0.00,VWS V14.01,2013-05-10 21:24:00,
2013-05-10 17:25:00,66.6,59.2,29.75,North,11,3.0,4.0,77,0.00,,,0.19,0.00,VWS V14.01,2013-05-10 21:25:00,
2013-05-10 17:29:00,66.9,59.5,29.75,North,355,3.0,8.0,77,0.00,,,0.19,0.00,VWS V14.01,2013-05-10 21:29:00,
2013-05-10 17:30:00,66.9,59.5,29.75,NNE,21,5.0,8.0,77,0.00,,,0.19,0.00,VWS V14.01,2013-05-10 21:30:00,
2013-05-10 17:34:00,66.5,58.7,29.76,NNE,15,4.0,8.0,76,0.00,,,0.19,0.00,VWS V14.01,2013-05-10 21:34:00,
2013-05-10 17:35:00,66.3,58.5,29.76,NNE,16,7.0,11.0,76,0.00,,,0.19,0.00,VWS V14.01,2013-05-10 21:35:00,
2013-05-10 17:39:00,65.6,57.8,29.75,North,349,4.0,6.0,76,0.00,,,0.19,0.00,VWS V14.01,2013-05-10 21:39:00,
2013-05-10 17:40:00,65.5,57.7,29.75,NNW,337,1.0,3.0,76,0.00,,,0.19,0.00,VWS V14.01,2013-05-10 21:40:00,
2013-05-10 17:44:00,65.3,58.3,29.75,North,360,3.0,5.0,78,0.00,,,0.19,0.00,VWS V14.01,2013-05-10 21:44:00,
2013-05-10 17:45:00,65.3,58.6,29.75,North,360,0.0,1.0,79,0.00,,,0.19,0.00,VWS V14.01,2013-05-10 21:45:00,
2013-05-10 17:49:00,65.6,58.6,29.75,North,351,2.0,4.0,78,0.00,,,0.19,0.00,VWS V14.01,2013-05-10 21:49:00,
2013-05-10 17:50:00,65.6,58.6,29.75,North,355,3.0,4.0,78,0.00,,,0.19,0.00,VWS V14.01,2013-05-10 21:50:00,
2013-05-10 17:54:00,65.8,58.4,29.75,NW,308,2.0,3.0,77,0.00,,,0.19,0.00,VWS V14.01,2013-05-10 21:54:00,
2013-05-10 17:55:00,65.8,58.8,29.75,NNW,337,5.0,5.0,78,0.00,,,0.19,0.00,VWS V14.01,2013-05-10 21:55:00,
2013-05-10 17:58:00,65.9,58.5,29.75,North,355,2.0,8.0,77,0.00,,,0.19,0.00,VWS V14.01,2013-05-10 21:58:00,
2013-05-10 18:03:00,66.5,59.1,29.75,ENE,58,3.0,3.0,77,0.00,,,0.19,0.00,VWS V14.01,2013-05-10 22:03:00,
2013-05-10 18:08:00,66.4,58.2,29.75,North,9,1.0,5.0,75,0.00,,,0.19,0.00,VWS V14.01,2013-05-10 22:08:00,
2013-05-10 18:13:00,66.2,58.0,29.75,NNE,15,3.0,6.0,75,0.00,,,0.19,0.00,VWS V14.01,2013-05-10 22:13:00,
2013-05-10 18:18:00,65.8,57.7,29.75,North,355,0.0,2.0,75,0.00,,,0.19,0.00,VWS V14.01,2013-05-10 22:18:00,
2013-05-10 18:23:00,65.7,57.6,29.75,NW,318,0.0,2.0,75,0.00,,,0.19,0.00,VWS V14.01,2013-05-10 22:23:00,
2013-05-10 18:28:00,65.2,57.5,29.76,North,5,2.0,4.0,76,0.00,,,0.19,0.00,VWS V14.01,2013-05-10 22:28:00,
2013-05-10 18:33:00,64.8,57.4,29.76,North,351,4.0,6.0,77,0.00,,,0.19,0.00,VWS V14.01,2013-05-10 22:33:00,
2013-05-10 18:34:00,64.7,57.0,29.76,North,11,5.0,6.0,76,0.00,,,0.19,0.00,VWS V14.01,2013-05-10 22:34:00,
2013-05-10 18:38:00,64.3,57.0,29.76,North,355,10.0,10.0,77,0.00,,,0.19,0.00,VWS V14.01,2013-05-10 22:38:00,
2013-05-10 18:39:00,64.3,57.0,29.76,NNE,32,7.0,10.0,77,0.00,,,0.19,0.00,VWS V14.01,2013-05-10 22:39:00,
2013-05-10 18:43:00,63.8,56.8,29.76,NNE,21,6.0,11.0,78,0.00,,,0.19,0.00,VWS V14.01,2013-05-10 22:43:00,
2013-05-10 18:44:00,63.7,56.7,29.76,North,350,4.0,6.0,78,0.00,,,0.19,0.00,VWS V14.01,2013-05-10 22:44:00,
2013-05-10 18:48:00,63.4,56.4,29.76,North,5,5.0,7.0,78,0.00,,,0.19,0.00,VWS V14.01,2013-05-10 22:48:00,
2013-05-10 18:49:00,63.3,56.3,29.76,NNW,340,7.0,11.0,78,0.00,,,0.19,0.00,VWS V14.01,2013-05-10 22:49:00,
2013-05-10 18:53:00,63.2,56.2,29.76,North,355,4.0,4.0,78,0.00,,,0.19,0.00,VWS V14.01,2013-05-10 22:53:00,
2013-05-10 18:54:00,63.3,56.7,29.76,North,360,3.0,6.0,79,0.00,,,0.19,0.00,VWS V14.01,2013-05-10 22:54:00,
2013-05-10 18:58:00,63.2,56.2,29.76,NE,42,2.0,6.0,78,0.00,,,0.19,0.00,VWS V14.01,2013-05-10 22:58:00,
2013-05-10 18:59:00,63.2,56.2,29.76,NNE,30,3.0,6.0,78,0.00,,,0.19,0.00,VWS V14.01,2013-05-10 22:59:00,
2013-05-10 19:03:00,63.4,56.4,29.76,North,5,3.0,7.0,78,0.00,,,0.19,0.00,VWS V14.01,2013-05-10 23:03:00,
2013-05-10 19:04:00,63.4,56.4,29.77,NNW,342,7.0,8.0,78,0.00,,,0.19,0.00,VWS V14.01,2013-05-10 23:04:00,
2013-05-10 19:08:00,62.6,55.3,29.77,NNW,348,4.0,8.0,77,0.00,,,0.19,0.00,VWS V14.01,2013-05-10 23:08:00,
2013-05-10 19:09:00,62.6,55.3,29.77,North,360,5.0,8.0,77,0.00,,,0.19,0.00,VWS V14.01,2013-05-10 23:09:00,
2013-05-10 19:13:00,61.8,54.9,29.77,NE,46,4.0,7.0,78,0.00,,,0.19,0.00,VWS V14.01,2013-05-10 23:13:00,
2013-05-10 19:14:00,61.8,54.9,29.77,North,355,1.0,1.0,78,0.00,,,0.19,0.00,VWS V14.01,2013-05-10 23:14:00,
2013-05-10 19:18:00,61.8,55.2,29.77,North,355,2.0,4.0,79,0.00,,,0.19,0.00,VWS V14.01,2013-05-10 23:18:00,
2013-05-10 19:19:00,61.8,55.2,29.77,North,355,2.0,4.0,79,0.00,,,0.19,0.00,VWS V14.01,2013-05-10 23:19:00,
2013-05-10 19:23:00,61.8,54.9,29.78,NNW,342,7.0,9.0,78,0.00,,,0.19,0.00,VWS V14.01,2013-05-10 23:23:00,
2013-05-10 19:24:00,61.7,54.8,29.78,North,5,7.0,9.0,78,0.00,,,0.19,0.00,VWS V14.01,2013-05-10 23:24:00,
2013-05-10 19:28:00,61.2,54.3,29.78,NE,35,2.0,12.0,78,0.00,,,0.19,0.00,VWS V14.01,2013-05-10 23:28:00,
2013-05-10 19:29:00,61.1,54.2,29.78,NNE,25,3.0,3.0,78,0.00,,,0.19,0.00,VWS V14.01,2013-05-10 23:29:00,
2013-05-10 19:33:00,60.7,53.8,29.78,NNE,31,6.0,6.0,78,0.00,,,0.19,0.00,VWS V14.01,2013-05-10 23:33:00,
2013-05-10 19:34:00,60.6,53.7,29.78,NNW,347,9.0,9.0,78,0.00,,,0.19,0.00,VWS V14.01,2013-05-10 23:34:00,
2013-05-10 19:38:00,59.9,53.4,29.78,North,351,3.0,4.0,79,0.00,,,0.19,0.00,VWS V14.01,2013-05-10 23:38:00,
2013-05-10 19:39:00,59.8,53.6,29.78,North,349,1.0,3.0,80,0.00,,,0.19,0.00,VWS V14.01,2013-05-10 23:39:00,
2013-05-10 19:43:00,59.6,53.4,29.78,NNE,23,2.0,5.0,80,0.00,,,0.19,0.00,VWS V14.01,2013-05-10 23:43:00,
2013-05-10 19:44:00,59.6,53.4,29.78,NNE,22,3.0,3.0,80,0.00,,,0.19,0.00,VWS V14.01,2013-05-10 23:44:00,
2013-05-10 19:48:00,59.2,53.0,29.78,NNW,329,1.0,4.0,80,0.00,,,0.19,0.00,VWS V14.01,2013-05-10 23:48:00,
2013-05-10 19:49:00,59.1,52.9,29.79,NNW,333,4.0,4.0,80,0.00,,,0.19,0.00,VWS V14.01,2013-05-10 23:49:00,
2013-05-10 19:50:00,59.0,52.8,29.79,North,350,2.0,4.0,80,0.00,,,0.19,0.00,VWS V14.01,2013-05-10 23:50:00,
2013-05-10 19:53:00,58.3,52.2,29.79,NNW,331,6.0,9.0,80,0.00,,,0.19,0.00,VWS V14.01,2013-05-10 23:53:00,
2013-05-10 19:54:00,58.2,52.1,29.79,NNE,31,3.0,7.0,80,0.00,,,0.19,0.00,VWS V14.01,2013-05-10 23:54:00,
2013-05-10 19:55:00,58.0,51.9,29.79,North,5,2.0,3.0,80,0.00,,,0.19,0.00,VWS V14.01,2013-05-10 23:55:00,
2013-05-10 19:59:00,57.2,51.4,29.80,NNE,29,4.0,4.0,81,0.00,,,0.19,0.00,VWS V14.01,2013-05-10 23:59:00,
2013-05-10 20:00:00,57.0,51.2,29.80,North,5,7.0,11.0,81,0.00,,,0.19,0.00,VWS V14.01,2013-05-11 00:00:00,
2013-05-10 20:04:00,56.3,50.9,29.80,NNE,26,7.0,11.0,82,0.00,,,0.19,0.00,VWS V14.01,2013-05-11 00:04:00,
2013-05-10 20:05:00,56.2,50.5,29.80,NNE,13,1.0,11.0,81,0.00,,,0.19,0.00,VWS V14.01,2013-05-11 00:05:00,
2013-05-10 20:09:00,55.7,50.3,29.80,North,5,3.0,3.0,82,0.00,,,0.19,0.00,VWS V14.01,2013-05-11 00:09:00,
2013-05-10 20:10:00,55.6,50.2,29.80,North,5,6.0,7.0,82,0.00,,,0.19,0.00,VWS V14.01,2013-05-11 00:10:00,
2013-05-10 20:14:00,55.0,49.9,29.81,NNW,344,2.0,4.0,83,0.00,,,0.19,0.00,VWS V14.01,2013-05-11 00:14:00,
2013-05-10 20:15:00,54.9,49.8,29.81,North,360,0.0,3.0,83,0.00,,,0.19,0.00,VWS V14.01,2013-05-11 00:15:00,
2013-05-10 20:19:00,54.6,49.9,29.81,NNW,346,2.0,4.0,84,0.00,,,0.19,0.00,VWS V14.01,2013-05-11 00:19:00,
2013-05-10 20:20:00,54.6,49.9,29.81,NE,51,3.0,4.0,84,0.00,,,0.19,0.00,VWS V14.01,2013-05-11 00:20:00,
2013-05-10 20:24:00,54.1,49.4,29.81,North,360,2.0,3.0,84,0.00,,,0.19,0.00,VWS V14.01,2013-05-11 00:24:00,
2013-05-10 20:25:00,54.1,49.4,29.81,NNE,29,2.0,4.0,84,0.00,,,0.19,0.00,VWS V14.01,2013-05-11 00:25:00,
2013-05-10 20:29:00,53.6,48.9,29.82,North,5,3.0,6.0,84,0.00,,,0.19,0.00,VWS V14.01,2013-05-11 00:29:00,
2013-05-10 20:30:00,53.5,48.8,29.82,NE,34,6.0,8.0,84,0.00,,,0.19,0.00,VWS V14.01,2013-05-11 00:30:00,
2013-05-10 20:31:00,53.4,48.7,29.82,NNE,23,2.0,5.0,84,0.00,,,0.19,0.00,VWS V14.01,2013-05-11 00:31:00,
2013-05-10 20:34:00,53.0,48.3,29.82,NNW,338,4.0,5.0,84,0.00,,,0.19,0.00,VWS V14.01,2013-05-11 00:34:00,
2013-05-10 20:35:00,52.9,48.2,29.82,North,360,3.0,5.0,84,0.00,,,0.19,0.00,VWS V14.01,2013-05-11 00:35:00,
2013-05-10 20:36:00,52.8,48.4,29.82,NNE,26,1.0,3.0,85,0.00,,,0.19,0.00,VWS V14.01,2013-05-11 00:36:00,
2013-05-10 20:39:00,52.5,48.1,29.82,North,350,3.0,8.0,85,0.00,,,0.19,0.00,VWS V14.01,2013-05-11 00:39:00,
2013-05-10 20:40:00,52.5,48.1,29.82,North,350,4.0,8.0,85,0.00,,,0.19,0.00,VWS V14.01,2013-05-11 00:40:00,
2013-05-10 20:41:00,52.4,48.0,29.82,North,360,1.0,6.0,85,0.00,,,0.19,0.00,VWS V14.01,2013-05-11 00:41:00,
2013-05-10 20:44:00,52.2,48.2,29.82,NE,36,4.0,6.0,86,0.00,,,0.19,0.00,VWS V14.01,2013-05-11 00:44:00,
2013-05-10 20:45:00,52.1,48.0,29.82,North,5,2.0,6.0,86,0.00,,,0.19,0.00,VWS V14.01,2013-05-11 00:45:00,
2013-05-10 20:46:00,52.1,48.0,29.82,East,79,5.0,6.0,86,0.00,,,0.19,0.00,VWS V14.01,2013-05-11 00:46:00,
2013-05-10 20:49:00,52.0,48.0,29.82,North,355,1.0,7.0,86,0.00,,,0.19,0.00,VWS V14.01,2013-05-11 00:49:00,
2013-05-10 20:50:00,52.0,48.0,29.82,North,350,5.0,5.0,86,0.00,,,0.19,0.00,VWS V14.01,2013-05-11 00:50:00,
2013-05-10 20:51:00,51.9,47.8,29.82,NNW,345,4.0,4.0,86,0.00,,,0.19,0.00,VWS V14.01,2013-05-11 00:51:00,
2013-05-10 20:54:00,51.9,47.8,29.82,NNE,15,1.0,8.0,86,0.00,,,0.19,0.00,VWS V14.01,2013-05-11 00:54:00,
2013-05-10 20:55:00,51.9,47.8,29.82,North,9,2.0,4.0,86,0.00,,,0.19,0.00,VWS V14.01,2013-05-11 00:55:00,
2013-05-10 20:56:00,51.8,47.8,29.82,North,355,6.0,8.0,86,0.00,,,0.19,0.00,VWS V14.01,2013-05-11 00:56:00,
2013-05-10 20:59:00,51.7,47.7,29.82,North,5,2.0,5.0,86,0.00,,,0.19,0.00,VWS V14.01,2013-05-11 00:59:00,
2013-05-10 21:00:00,51.7,47.7,29.82,North,5,0.0,0.0,86,0.00,,,0.19,0.00,VWS V14.01,2013-05-11 01:00:00,
2013-05-10 21:02:00,51.7,47.7,29.82,North,355,0.0,0.0,86,0.00,,,0.19,0.00,VWS V14.01,2013-05-11 01:02:00,
2013-05-10 21:04:00,51.6,47.6,29.82,North,350,2.0,3.0,86,0.00,,,0.19,0.00,VWS V14.01,2013-05-11 01:04:00,
2013-05-10 21:05:00,51.6,47.6,29.83,North,350,1.0,1.0,86,0.00,,,0.19,0.00,VWS V14.01,2013-05-11 01:05:00,
2013-05-10 21:07:00,51.6,47.6,29.83,North,360,1.0,1.0,86,0.00,,,0.19,0.00,VWS V14.01,2013-05-11 01:07:00,
2013-05-10 21:09:00,51.5,47.5,29.83,NNE,26,4.0,9.0,86,0.00,,,0.19,0.00,VWS V14.01,2013-05-11 01:09:00,
2013-05-10 21:10:00,51.5,47.5,29.83,North,5,4.0,7.0,86,0.00,,,0.19,0.00,VWS V14.01,2013-05-11 01:10:00,
2013-05-10 21:12:00,51.4,47.4,29.83,ENE,59,5.0,8.0,86,0.00,,,0.19,0.00,VWS V14.01,2013-05-11 01:12:00,
2013-05-10 21:15:00,51.4,47.7,29.83,NNE,18,0.0,0.0,87,0.00,,,0.19,0.00,VWS V14.01,2013-05-11 01:15:00,
2013-05-10 21:16:00,51.4,47.7,29.83,NNE,13,2.0,3.0,87,0.00,,,0.19,0.00,VWS V14.01,2013-05-11 01:16:00,
2013-05-10 21:17:00,51.3,47.6,29.83,NNE,17,7.0,10.0,87,0.00,,,0.19,0.00,VWS V14.01,2013-05-11 01:17:00,
2013-05-10 21:20:00,51.2,47.5,29.83,NNE,26,7.0,7.0,87,0.00,,,0.19,0.00,VWS V14.01,2013-05-11 01:20:00,
2013-05-10 21:21:00,51.2,47.2,29.83,NE,34,1.0,2.0,86,0.00,,,0.19,0.00,VWS V14.01,2013-05-11 01:21:00,
2013-05-10 21:22:00,51.2,47.5,29.83,NNE,23,4.0,4.0,87,0.00,,,0.19,0.00,VWS V14.01,2013-05-11 01:22:00,
2013-05-10 21:25:00,51.0,47.3,29.83,NE,41,2.0,5.0,87,0.00,,,0.19,0.00,VWS V14.01,2013-05-11 01:25:00,
2013-05-10 21:26:00,51.0,47.3,29.83,NE,40,2.0,3.0,87,0.00,,,0.19,0.00,VWS V14.01,2013-05-11 01:26:00,
2013-05-10 21:27:00,51.0,47.3,29.83,NE,40,0.0,0.0,87,0.00,,,0.19,0.00,VWS V14.01,2013-05-11 01:27:00,
2013-05-10 21:30:00,51.0,47.3,29.83,North,5,0.0,2.0,87,0.00,,,0.19,0.00,VWS V14.01,2013-05-11 01:30:00,
2013-05-10 21:31:00,51.0,47.3,29.83,North,5,1.0,2.0,87,0.00,,,0.19,0.00,VWS V14.01,2013-05-11 01:31:00,
2013-05-10 21:32:00,50.9,47.2,29.84,North,5,2.0,2.0,87,0.00,,,0.19,0.00,VWS V14.01,2013-05-11 01:32:00,
2013-05-10 21:35:00,50.9,47.2,29.84,NE,38,1.0,1.0,87,0.00,,,0.19,0.00,VWS V14.01,2013-05-11 01:35:00,
2013-05-10 21:36:00,50.9,47.2,29.84,NE,38,0.0,1.0,87,0.00,,,0.19,0.00,VWS V14.01,2013-05-11 01:36:00,
2013-05-10 21:37:00,50.9,47.2,29.84,NNE,30,4.0,6.0,87,0.00,,,0.19,0.00,VWS V14.01,2013-05-11 01:37:00,
2013-05-10 21:40:00,50.9,47.2,29.84,NE,38,5.0,5.0,87,0.00,,,0.19,0.00,VWS V14.01,2013-05-11 01:40:00,
2013-05-10 21:41:00,50.9,47.5,29.84,NE,36,5.0,5.0,88,0.00,,,0.19,0.00,VWS V14.01,2013-05-11 01:41:00,
2013-05-10 21:42:00,50.8,47.1,29.84,NE,50,3.0,7.0,87,0.00,,,0.19,0.00,VWS V14.01,2013-05-11 01:42:00,
2013-05-10 21:45:00,50.8,47.4,29.84,NNE,27,0.0,3.0,88,0.00,,,0.19,0.00,VWS V14.01,2013-05-11 01:45:00,
2013-05-10 21:46:00,50.8,47.4,29.84,NNE,27,0.0,1.0,88,0.00,,,0.19,0.00,VWS V14.01,2013-05-11 01:46:00,
2013-05-10 21:47:00,50.8,47.4,29.84,NE,40,1.0,6.0,88,0.00,,,0.19,0.00,VWS V14.01,2013-05-11 01:47:00,
2013-05-10 21:50:00,50.8,47.1,29.84,NE,38,3.0,5.0,87,0.00,,,0.19,0.00,VWS V14.01,2013-05-11 01:50:00,
2013-05-10 21:51:00,50.8,47.1,29.84,NE,38,2.0,2.0,87,0.00,,,0.19,0.00,VWS V14.01,2013-05-11 01:51:00,
2013-05-10 21:52:00,50.7,47.0,29.84,North,5,3.0,4.0,87,0.00,,,0.19,0.00,VWS V14.01,2013-05-11 01:52:00,
2013-05-10 21:55:00,50.7,47.0,29.84,NE,44,0.0,2.0,87,0.00,,,0.19,0.00,VWS V14.01,2013-05-11 01:55:00,
2013-05-10 21:56:00,50.7,47.0,29.84,North,355,6.0,6.0,87,0.00,,,0.19,0.00,VWS V14.01,2013-05-11 01:56:00,
2013-05-10 21:57:00,50.6,46.9,29.85,North,355,0.0,0.0,87,0.00,,,0.19,0.00,VWS V14.01,2013-05-11 01:57:00,
2013-05-10 22:01:00,50.7,47.0,29.85,North,355,1.0,1.0,87,0.00,,,0.19,0.00,VWS V14.01,2013-05-11 02:01:00,
2013-05-10 22:02:00,50.7,47.0,29.85,North,360,5.0,5.0,87,0.00,,,0.19,0.00,VWS V14.01,2013-05-11 02:02:00,
2013-05-10 22:06:00,50.6,46.9,29.85,NNW,348,1.0,5.0,87,0.00,,,0.19,0.00,VWS V14.01,2013-05-11 02:06:00,
2013-05-10 22:07:00,50.5,47.1,29.85,North,349,0.0,1.0,88,0.00,,,0.19,0.00,VWS V14.01,2013-05-11 02:07:00,
2013-05-10 22:11:00,50.5,47.1,29.85,NNE,12,0.0,2.0,88,0.00,,,0.19,0.00,VWS V14.01,2013-05-11 02:11:00,
2013-05-10 22:12:00,50.4,47.0,29.85,NNW,333,4.0,6.0,88,0.00,,,0.19,0.00,VWS V14.01,2013-05-11 02:12:00,
2013-05-10 22:16:00,50.3,46.9,29.85,North,350,0.0,0.0,88,0.00,,,0.19,0.00,VWS V14.01,2013-05-11 02:16:00,
2013-05-10 22:17:00,50.3,46.9,29.85,North,350,1.0,2.0,88,0.00,,,0.19,0.00,VWS V14.01,2013-05-11 02:17:00,
2013-05-10 22:21:00,50.2,46.8,29.85,NNE,25,4.0,4.0,88,0.00,,,0.19,0.00,VWS V14.01,2013-05-11 02:21:00,
2013-05-10 22:22:00,50.2,46.8,29.85,NNE,15,1.0,2.0,88,0.00,,,0.19,0.00,VWS V14.01,2013-05-11 02:22:00,
2013-05-10 22:26:00,50.0,46.6,29.85,NNW,340,0.0,3.0,88,0.00,,,0.19,0.00,VWS V14.01,2013-05-11 02:26:00,
2013-05-10 22:27:00,50.0,46.6,29.85,NNW,341,2.0,3.0,88,0.00,,,0.19,0.00,VWS V14.01,2013-05-11 02:27:00,
2013-05-10 22:28:00,49.9,46.5,29.85,North,355,0.0,6.0,88,0.00,,,0.19,0.00,VWS V14.01,2013-05-11 02:28:00,
2013-05-10 22:31:00,49.8,46.4,29.85,NE,45,5.0,5.0,88,0.00,,,0.19,0.00,VWS V14.01,2013-05-11 02:31:00,
2013-05-10 22:32:00,49.8,46.4,29.85,NE,38,2.0,2.0,88,0.00,,,0.19,0.00,VWS V14.01,2013-05-11 02:32:00,
2013-05-10 22:33:00,49.8,46.4,29.85,NE,40,3.0,10.0,88,0.00,,,0.19,0.00,VWS V14.01,2013-05-11 02:33:00,
2013-05-10 22:36:00,49.7,46.3,29.85,NNW,346,3.0,7.0,88,0.00,,,0.19,0.00,VWS V14.01,2013-05-11 02:36:00,
2013-05-10 22:37:00,49.6,46.2,29.85,NNW,335,7.0,7.0,88,0.00,,,0.19,0.00,VWS V14.01,2013-05-11 02:37:00,
2013-05-10 22:38:00,49.6,46.2,29.85,North,350,1.0,7.0,88,0.00,,,0.19,0.00,VWS V14.01,2013-05-11 02:38:00,
2013-05-10 22:41:00,49.5,46.1,29.85,North,355,0.0,4.0,88,0.00,,,0.19,0.00,VWS V14.01,2013-05-11 02:41:00,
2013-05-10 22:42:00,49.5,46.1,29.85,NNE,30,2.0,4.0,88,0.00,,,0.19,0.00,VWS V14.01,2013-05-11 02:42:00,
2013-05-10 22:43:00,49.5,46.1,29.85,NNW,346,5.0,5.0,88,0.00,,,0.19,0.00,VWS V14.01,2013-05-11 02:43:00,
2013-05-10 22:46:00,49.4,46.0,29.86,North,5,0.0,4.0,88,0.00,,,0.19,0.00,VWS V14.01,2013-05-11 02:46:00,
2013-05-10 22:47:00,49.3,45.9,29.86,North,355,4.0,8.0,88,0.00,,,0.19,0.00,VWS V14.01,2013-05-11 02:47:00,
2013-05-10 22:48:00,49.3,45.9,29.86,NNE,19,3.0,8.0,88,0.00,,,0.19,0.00,VWS V14.01,2013-05-11 02:48:00,
2013-05-10 22:51:00,49.2,46.1,29.86,North,10,1.0,1.0,89,0.00,,,0.19,0.00,VWS V14.01,2013-05-11 02:51:00,
2013-05-10 22:52:00,49.2,46.1,29.86,NNE,15,1.0,4.0,89,0.00,,,0.19,0.00,VWS V14.01,2013-05-11 02:52:00,
2013-05-10 22:53:00,49.2,46.1,29.86,NNE,13,2.0,2.0,89,0.00,,,0.19,0.00,VWS V14.01,2013-05-11 02:53:00,
2013-05-10 22:56:00,49.1,46.0,29.86,NE,36,1.0,1.0,89,0.00,,,0.19,0.00,VWS V14.01,2013-05-11 02:56:00,
2013-05-10 22:57:00,49.1,46.0,29.86,NNE,13,0.0,1.0,89,0.00,,,0.19,0.00,VWS V14.01,2013-05-11 02:57:00,
2013-05-10 22:58:00,49.1,46.0,29.86,NNE,13,0.0,2.0,89,0.00,,,0.19,0.00,VWS V14.01,2013-05-11 02:58:00,
2013-05-10 23:01:00,49.1,46.0,29.86,NE,34,0.0,5.0,89,0.00,,,0.19,0.00,VWS V14.01,2013-05-11 03:01:00,
2013-05-10 23:02:00,49.1,46.0,29.86,NE,37,0.0,3.0,89,0.00,,,0.19,0.00,VWS V14.01,2013-05-11 03:02:00,
2013-05-10 23:03:00,49.1,46.0,29.86,NE,37,1.0,1.0,89,0.00,,,0.19,0.00,VWS V14.01,2013-05-11 03:03:00,
2013-05-10 23:06:00,49.1,46.0,29.86,NE,36,2.0,2.0,89,0.00,,,0.19,0.00,VWS V14.01,2013-05-11 03:06:00,
2013-05-10 23:07:00,49.1,46.0,29.86,NE,36,1.0,2.0,89,0.00,,,0.19,0.00,VWS V14.01,2013-05-11 03:07:00,
2013-05-10 23:08:00,49.1,46.0,29.86,NE,36,0.0,1.0,89,0.00,,,0.19,0.00,VWS V14.01,2013-05-11 03:08:00,
2013-05-10 23:11:00,49.1,46.0,29.86,North,360,1.0,2.0,89,0.00,,,0.19,0.00,VWS V14.01,2013-05-11 03:11:00,
2013-05-10 23:12:00,49.1,46.0,29.86,North,360,0.0,2.0,89,0.00,,,0.19,0.00,VWS V14.01,2013-05-11 03:12:00,
2013-05-10 23:13:00,49.1,46.0,29.86,North,355,4.0,5.0,89,0.00,,,0.19,0.00,VWS V14.01,2013-05-11 03:13:00,
2013-05-10 23:16:00,49.0,45.9,29.86,North,9,2.0,4.0,89,0.00,,,0.19,0.00,VWS V14.01,2013-05-11 03:16:00,
2013-05-10 23:17:00,49.0,45.9,29.86,NNE,13,2.0,6.0,89,0.00,,,0.19,0.00,VWS V14.01,2013-05-11 03:17:00,
2013-05-10 23:18:00,49.0,45.9,29.86,North,11,0.0,1.0,89,0.00,,,0.19,0.00,VWS V14.01,2013-05-11 03:18:00,
2013-05-10 23:21:00,48.9,45.8,29.86,NNE,13,6.0,7.0,89,0.00,,,0.19,0.00,VWS V14.01,2013-05-11 03:21:00,
2013-05-10 23:22:00,48.9,45.8,29.86,North,350,3.0,7.0,89,0.00,,,0.19,0.00,VWS V14.01,2013-05-11 03:22:00,
2013-05-10 23:23:00,48.9,45.8,29.86,North,360,5.0,5.0,89,0.00,,,0.19,0.00,VWS V14.01,2013-05-11 03:23:00,
2013-05-10 23:26:00,48.9,45.8,29.86,North,360,0.0,2.0,89,0.00,,,0.19,0.00,VWS V14.01,2013-05-11 03:26:00,
2013-05-10 23:27:00,48.9,45.8,29.86,North,360,0.0,2.0,89,0.00,,,0.19,0.00,VWS V14.01,2013-05-11 03:27:00,
2013-05-10 23:28:00,48.9,45.8,29.86,North,360,1.0,2.0,89,0.00,,,0.19,0.00,VWS V14.01,2013-05-11 03:28:00,
2013-05-10 23:31:00,48.9,45.8,29.86,North,351,3.0,3.0,89,0.00,,,0.19,0.00,VWS V14.01,2013-05-11 03:31:00,
2013-05-10 23:32:00,48.9,45.8,29.86,North,351,0.0,3.0,89,0.00,,,0.19,0.00,VWS V14.01,2013-05-11 03:32:00,
2013-05-10 23:33:00,48.9,45.8,29.86,North,5,0.0,4.0,89,0.00,,,0.19,0.00,VWS V14.01,2013-05-11 03:33:00,
2013-05-10 23:36:00,48.9,45.5,29.86,NE,34,1.0,6.0,88,0.00,,,0.19,0.00,VWS V14.01,2013-05-11 03:36:00,
2013-05-10 23:37:00,48.9,45.5,29.86,NE,35,4.0,6.0,88,0.00,,,0.19,0.00,VWS V14.01,2013-05-11 03:37:00,
2013-05-10 23:38:00,48.8,45.4,29.85,NE,37,3.0,4.0,88,0.00,,,0.19,0.00,VWS V14.01,2013-05-11 03:38:00,
2013-05-10 23:41:00,48.8,45.4,29.85,North,355,3.0,5.0,88,0.00,,,0.19,0.00,VWS V14.01,2013-05-11 03:41:00,
2013-05-10 23:42:00,48.8,45.4,29.85,North,355,0.0,2.0,88,0.00,,,0.19,0.00,VWS V14.01,2013-05-11 03:42:00,
2013-05-10 23:43:00,48.8,45.4,29.86,North,5,1.0,2.0,88,0.00,,,0.19,0.00,VWS V14.01,2013-05-11 03:43:00,
2013-05-10 23:46:00,48.7,45.3,29.85,NNE,29,2.0,6.0,88,0.00,,,0.19,0.00,VWS V14.01,2013-05-11 03:46:00,
2013-05-10 23:47:00,48.7,45.3,29.85,NNE,29,3.0,3.0,88,0.00,,,0.19,0.00,VWS V14.01,2013-05-11 03:47:00,
2013-05-10 23:48:00,48.7,45.3,29.85,NNE,29,0.0,1.0,88,0.00,,,0.19,0.00,VWS V14.01,2013-05-11 03:48:00,
2013-05-10 23:51:00,48.7,45.3,29.85,NNE,30,1.0,2.0,88,0.00,,,0.19,0.00,VWS V14.01,2013-05-11 03:51:00,
2013-05-10 23:52:00,48.7,45.3,29.85,NNE,32,5.0,6.0,88,0.00,,,0.19,0.00,VWS V14.01,2013-05-11 03:52:00,
2013-05-10 23:53:00,48.7,45.3,29.85,NNE,32,1.0,4.0,88,0.00,,,0.19,0.00,VWS V14.01,2013-05-11 03:53:00,
2013-05-10 23:54:00,48.7,45.3,29.85,NNE,32,2.0,3.0,88,0.00,,,0.19,0.00,VWS V14.01,2013-05-11 03:54:00,
2013-05-10 23:56:00,48.7,45.3,29.85,NE,34,2.0,5.0,88,0.00,,,0.19,0.00,VWS V14.01,2013-05-11 03:56:00,
2013-05-10 23:57:00,48.7,45.3,29.85,NNE,33,2.0,4.0,88,0.00,,,0.19,0.00,VWS V14.01,2013-05-11 03:57:00,
2013-05-10 23:58:00,48.7,45.3,29.85,NE,34,2.0,3.0,88,0.00,,,0.19,0.00,VWS V14.01,2013-05-11 03:58:00,
2013-05-10 23:59:00,48.7,45.3,29.85,NE,34,0.0,0.0,88,0.00,,,0.19,0.00,VWS V14.01,2013-05-11 03:59:00,